SWR160 LSZH-RJAA
Flight info
| Callsign | SWR160 |
|---|---|
| Flight time | 12h 31m |
| Altitude | 33000 |
| Route | DEGES Z2 UMVEG DCT DIMLO DCT INVED DCT SOKRU DCT DINRO DCT UDROS UM859 KARDE UN644 ROLIN/N0470F350 DCT TETRO DCT BARAD M747 SUBUT T916 LEYLA N161 GASBI/K0874F350 N161 ARKAM/K0865F370 N161 SARIN/K0859S1130 A368 FKG W188 LIKMI W270 BIVOR/K0870S1190 W270 DKO W69 HUR B339 LADIX W34 VAPGU W100 MUDOT DCT UNSEK A326 DONVO G597 AGAVO/N0469F390 Y644 EGOBA Y697 LANAT Y51 SAMON Y517 ESKAS Y303 ENTAK Y30 SWAMP |
| Aircraft | A343/H-SDE2E3FGHIJ4J5M1RWXY/LB1D1 |
Departure
| Time | 2026-02-18 09:41 |
|---|---|
| Airport | Zürich Airport (LSZH) |
Arrival
| Time | 2026-02-18 22:12 |
|---|---|
| Airport | Narita International Airport (RJAA) |
| Time | Latitude | Longitude | Altitude | Speed | Heading |
|---|---|---|---|---|---|
| 2026-02-18 09:04 | 47.46058 | 8.55433 | 1409 ft | 0 kts | 6° |
| 2026-02-18 09:21 | 47.46051 | 8.55432 | 1401 ft | 2 kts | 7° |
| 2026-02-18 09:21 | 47.46018 | 8.55426 | 1403 ft | 3 kts | 359° |
| 2026-02-18 09:21 | 47.46000 | 8.55429 | 1405 ft | 2 kts | 341° |
| 2026-02-18 09:22 | 47.45983 | 8.55440 | 1409 ft | 3 kts | 322° |
| 2026-02-18 09:22 | 47.45970 | 8.55460 | 1409 ft | 3 kts | 290° |
| 2026-02-18 09:22 | 47.45965 | 8.55505 | 1412 ft | 0 kts | 276° |
| 2026-02-18 09:25 | 47.45968 | 8.55467 | 1405 ft | 6 kts | 276° |
| 2026-02-18 09:25 | 47.45974 | 8.55380 | 1406 ft | 11 kts | 276° |
| 2026-02-18 09:26 | 47.45983 | 8.55252 | 1402 ft | 13 kts | 275° |
| 2026-02-18 09:26 | 47.45995 | 8.55126 | 1405 ft | 12 kts | 287° |
| 2026-02-18 09:26 | 47.46055 | 8.55057 | 1401 ft | 10 kts | 337° |
| 2026-02-18 09:26 | 47.46115 | 8.55018 | 1403 ft | 9 kts | 335° |
| 2026-02-18 09:27 | 47.46168 | 8.54982 | 1403 ft | 8 kts | 335° |
| 2026-02-18 09:27 | 47.46218 | 8.54949 | 1401 ft | 8 kts | 335° |
| 2026-02-18 09:27 | 47.46271 | 8.54914 | 1401 ft | 9 kts | 335° |
| 2026-02-18 09:27 | 47.46342 | 8.54865 | 1386 ft | 13 kts | 335° |
| 2026-02-18 09:28 | 47.46431 | 8.54803 | 1385 ft | 14 kts | 335° |
| 2026-02-18 09:28 | 47.46508 | 8.54749 | 1401 ft | 9 kts | 335° |
| 2026-02-18 09:28 | 47.46554 | 8.54717 | 1403 ft | 6 kts | 335° |
| 2026-02-18 09:28 | 47.46572 | 8.54705 | 1399 ft | 0 kts | 335° |
| 2026-02-18 09:34 | 47.46576 | 8.54702 | 1400 ft | 1 kts | 335° |
| 2026-02-18 09:35 | 47.46580 | 8.54699 | 1403 ft | 1 kts | 335° |
| 2026-02-18 09:35 | 47.46604 | 8.54683 | 1404 ft | 6 kts | 335° |
| 2026-02-18 09:35 | 47.46655 | 8.54648 | 1404 ft | 11 kts | 335° |
| 2026-02-18 09:35 | 47.46737 | 8.54582 | 1386 ft | 16 kts | 324° |
| 2026-02-18 09:36 | 47.46814 | 8.54453 | 1382 ft | 16 kts | 305° |
| 2026-02-18 09:36 | 47.46893 | 8.54356 | 1381 ft | 14 kts | 332° |
| 2026-02-18 09:36 | 47.46985 | 8.54291 | 1384 ft | 16 kts | 335° |
| 2026-02-18 09:36 | 47.47097 | 8.54213 | 1385 ft | 19 kts | 334° |
| 2026-02-18 09:37 | 47.47220 | 8.54128 | 1388 ft | 19 kts | 335° |
| 2026-02-18 09:37 | 47.47423 | 8.53989 | 1399 ft | 14 kts | 335° |
| 2026-02-18 09:37 | 47.47509 | 8.53929 | 1405 ft | 14 kts | 335° |
| 2026-02-18 09:38 | 47.47589 | 8.53855 | 1406 ft | 13 kts | 310° |
| 2026-02-18 09:38 | 47.47602 | 8.53734 | 1411 ft | 12 kts | 255° |
| 2026-02-18 09:38 | 47.47572 | 8.53633 | 1402 ft | 9 kts | 244° |
| 2026-02-18 09:38 | 47.47551 | 8.53612 | 1412 ft | 1 kts | 169° |
| 2026-02-18 09:39 | 47.47548 | 8.53615 | 1412 ft | 0 kts | 158° |
| 2026-02-18 09:39 | 47.47490 | 8.53651 | 1404 ft | 27 kts | 156° |
| 2026-02-18 09:40 | 47.47135 | 8.53892 | 1384 ft | 83 kts | 154° |
| 2026-02-18 09:40 | 47.46464 | 8.54358 | 1382 ft | 129 kts | 155° |
| 2026-02-18 09:40 | 47.45526 | 8.55002 | 1407 ft | 167 kts | 155° |
| 2026-02-18 09:40 | 47.44449 | 8.55760 | 1816 ft | 171 kts | 154° |
| 2026-02-18 09:41 | 47.43410 | 8.56549 | 2430 ft | 170 kts | 144° |
| 2026-02-18 09:41 | 47.42836 | 8.59679 | 3420 ft | 174 kts | 66° |
| 2026-02-18 09:41 | 47.43590 | 8.61119 | 3673 ft | 182 kts | 44° |
| 2026-02-18 09:42 | 47.44528 | 8.62412 | 3983 ft | 186 kts | 44° |
| 2026-02-18 09:42 | 47.45416 | 8.63801 | 4325 ft | 188 kts | 60° |
| 2026-02-18 09:42 | 47.45807 | 8.65637 | 4538 ft | 194 kts | 82° |
| 2026-02-18 09:42 | 47.46059 | 8.67665 | 4733 ft | 206 kts | 83° |
| 2026-02-18 09:43 | 47.46256 | 8.69797 | 5011 ft | 214 kts | 86° |
| 2026-02-18 09:43 | 47.46389 | 8.72072 | 5137 ft | 231 kts | 89° |
| 2026-02-18 09:43 | 47.46476 | 8.74547 | 5302 ft | 249 kts | 90° |
| 2026-02-18 09:43 | 47.46549 | 8.77202 | 5541 ft | 266 kts | 90° |
| 2026-02-18 09:44 | 47.46623 | 8.80015 | 5826 ft | 281 kts | 89° |
| 2026-02-18 09:44 | 47.46619 | 8.82944 | 6289 ft | 288 kts | 99° |
| 2026-02-18 09:44 | 47.46226 | 8.85834 | 6743 ft | 295 kts | 104° |
| 2026-02-18 09:44 | 47.45784 | 8.88840 | 7205 ft | 302 kts | 103° |
| 2026-02-18 09:45 | 47.45353 | 8.91897 | 7722 ft | 306 kts | 104° |
| 2026-02-18 09:45 | 47.44491 | 8.98128 | 8784 ft | 313 kts | 103° |
| 2026-02-18 09:45 | 47.44045 | 9.01307 | 9305 ft | 318 kts | 104° |
| 2026-02-18 09:46 | 47.43588 | 9.04516 | 9813 ft | 322 kts | 104° |
| 2026-02-18 09:46 | 47.43117 | 9.07769 | 10275 ft | 325 kts | 104° |
| 2026-02-18 09:46 | 47.42630 | 9.11089 | 10514 ft | 338 kts | 104° |
| 2026-02-18 09:46 | 47.42119 | 9.14552 | 10693 ft | 351 kts | 104° |
| 2026-02-18 09:47 | 47.41586 | 9.18129 | 10908 ft | 363 kts | 103° |
| 2026-02-18 09:47 | 47.41397 | 9.21901 | 11093 ft | 376 kts | 83° |
| 2026-02-18 09:47 | 47.41952 | 9.25712 | 11328 ft | 385 kts | 73° |
| 2026-02-18 09:47 | 47.42680 | 9.29576 | 11586 ft | 395 kts | 72° |
| 2026-02-18 09:48 | 47.43379 | 9.33487 | 11951 ft | 401 kts | 74° |
| 2026-02-18 09:48 | 47.44012 | 9.37524 | 12350 ft | 407 kts | 76° |
| 2026-02-18 09:48 | 47.44610 | 9.41641 | 12771 ft | 411 kts | 76° |
| 2026-02-18 09:48 | 47.45202 | 9.45799 | 13240 ft | 414 kts | 76° |
| 2026-02-18 09:49 | 47.45801 | 9.49978 | 13720 ft | 418 kts | 76° |
| 2026-02-18 09:49 | 47.46942 | 9.58476 | 14502 ft | 426 kts | 82° |
| 2026-02-18 09:49 | 47.47046 | 9.62881 | 14925 ft | 431 kts | 88° |
| 2026-02-18 09:50 | 47.46953 | 9.67346 | 15309 ft | 436 kts | 91° |
| 2026-02-18 09:50 | 47.46750 | 9.71833 | 15719 ft | 439 kts | 92° |
| 2026-02-18 09:50 | 47.46495 | 9.76291 | 16137 ft | 442 kts | 93° |
| 2026-02-18 09:50 | 47.46214 | 9.80832 | 16573 ft | 446 kts | 94° |
| 2026-02-18 09:51 | 47.45929 | 9.85422 | 16969 ft | 449 kts | 93° |
| 2026-02-18 09:51 | 47.45649 | 9.90035 | 17372 ft | 452 kts | 93° |
| 2026-02-18 09:51 | 47.45375 | 9.94690 | 17763 ft | 456 kts | 93° |
| 2026-02-18 09:51 | 47.45102 | 9.99376 | 18191 ft | 459 kts | 92° |
| 2026-02-18 09:52 | 47.44832 | 10.04087 | 18533 ft | 462 kts | 92° |
| 2026-02-18 09:52 | 47.44561 | 10.08833 | 18926 ft | 464 kts | 92° |
| 2026-02-18 09:52 | 47.44286 | 10.13590 | 19288 ft | 467 kts | 92° |
| 2026-02-18 09:52 | 47.43902 | 10.18383 | 19636 ft | 471 kts | 97° |
| 2026-02-18 09:53 | 47.43358 | 10.23166 | 19983 ft | 474 kts | 98° |
| 2026-02-18 09:53 | 47.42112 | 10.32735 | 20650 ft | 480 kts | 99° |
| 2026-02-18 09:53 | 47.41448 | 10.37587 | 20993 ft | 483 kts | 100° |
| 2026-02-18 09:54 | 47.40774 | 10.42451 | 21398 ft | 485 kts | 99° |
| 2026-02-18 09:54 | 47.40099 | 10.47358 | 21714 ft | 489 kts | 99° |
| 2026-02-18 09:54 | 47.39423 | 10.52304 | 21957 ft | 492 kts | 99° |
| 2026-02-18 09:54 | 47.38734 | 10.57267 | 22237 ft | 495 kts | 99° |
| 2026-02-18 09:55 | 47.38033 | 10.62260 | 22592 ft | 497 kts | 99° |
| 2026-02-18 09:55 | 47.37340 | 10.67269 | 22925 ft | 500 kts | 98° |
| 2026-02-18 09:55 | 47.36651 | 10.72304 | 23249 ft | 503 kts | 99° |
| 2026-02-18 09:55 | 47.35947 | 10.77371 | 23585 ft | 505 kts | 99° |
| 2026-02-18 09:56 | 47.35233 | 10.82457 | 23759 ft | 508 kts | 99° |
| 2026-02-18 09:56 | 47.34513 | 10.87569 | 24059 ft | 511 kts | 99° |
| 2026-02-18 09:56 | 47.33786 | 10.92701 | 24335 ft | 512 kts | 99° |
| 2026-02-18 09:56 | 47.33052 | 10.97849 | 24563 ft | 513 kts | 99° |
| 2026-02-18 09:57 | 47.32329 | 11.02969 | 24750 ft | 516 kts | 99° |
| 2026-02-18 09:57 | 47.30845 | 11.13372 | 25211 ft | 520 kts | 99° |
| 2026-02-18 09:57 | 47.30094 | 11.18586 | 25490 ft | 521 kts | 99° |
| 2026-02-18 09:58 | 47.29339 | 11.23817 | 25731 ft | 523 kts | 99° |
| 2026-02-18 09:58 | 47.28580 | 11.29070 | 25974 ft | 525 kts | 99° |
| 2026-02-18 09:58 | 47.27818 | 11.34335 | 26239 ft | 524 kts | 99° |
| 2026-02-18 09:58 | 47.27054 | 11.39592 | 26416 ft | 527 kts | 99° |
| 2026-02-18 09:59 | 47.26283 | 11.44873 | 26628 ft | 529 kts | 99° |
| 2026-02-18 09:59 | 47.25504 | 11.50186 | 26879 ft | 531 kts | 99° |
| 2026-02-18 09:59 | 47.24765 | 11.55509 | 27122 ft | 532 kts | 97° |
| 2026-02-18 09:59 | 47.24152 | 11.60888 | 27340 ft | 533 kts | 96° |
| 2026-02-18 10:00 | 47.23599 | 11.66271 | 27568 ft | 534 kts | 95° |
| 2026-02-18 10:00 | 47.23058 | 11.71684 | 27795 ft | 535 kts | 95° |
| 2026-02-18 10:00 | 47.22508 | 11.77116 | 27986 ft | 537 kts | 95° |
| 2026-02-18 10:00 | 47.21950 | 11.82491 | 28136 ft | 539 kts | 96° |
| 2026-02-18 10:01 | 47.21367 | 11.87941 | 28269 ft | 540 kts | 96° |
| 2026-02-18 10:01 | 47.20224 | 11.98882 | 28687 ft | 543 kts | 95° |
| 2026-02-18 10:01 | 47.19696 | 12.04389 | 28960 ft | 543 kts | 95° |
| 2026-02-18 10:02 | 47.19178 | 12.09885 | 29284 ft | 541 kts | 95° |
| 2026-02-18 10:02 | 47.18655 | 12.15375 | 29531 ft | 541 kts | 95° |
| 2026-02-18 10:02 | 47.18124 | 12.20865 | 29775 ft | 542 kts | 95° |
| 2026-02-18 10:02 | 47.17587 | 12.26345 | 30013 ft | 541 kts | 95° |
| 2026-02-18 10:03 | 47.17046 | 12.31818 | 30253 ft | 541 kts | 95° |
| 2026-02-18 10:03 | 47.16505 | 12.37227 | 30446 ft | 541 kts | 95° |
| 2026-02-18 10:03 | 47.15953 | 12.42701 | 30662 ft | 541 kts | 95° |
| 2026-02-18 10:03 | 47.15399 | 12.48164 | 30897 ft | 542 kts | 95° |
| 2026-02-18 10:04 | 47.14844 | 12.53642 | 31072 ft | 542 kts | 95° |
| 2026-02-18 10:04 | 47.14285 | 12.59124 | 31305 ft | 541 kts | 95° |
| 2026-02-18 10:04 | 47.13725 | 12.64587 | 31531 ft | 541 kts | 95° |
| 2026-02-18 10:04 | 47.13163 | 12.70052 | 31693 ft | 542 kts | 95° |
| 2026-02-18 10:05 | 47.12599 | 12.75521 | 31858 ft | 542 kts | 95° |
| 2026-02-18 10:05 | 47.11455 | 12.86462 | 32187 ft | 542 kts | 96° |
| 2026-02-18 10:05 | 47.10880 | 12.91934 | 32392 ft | 542 kts | 95° |
| 2026-02-18 10:06 | 47.10306 | 12.97384 | 32631 ft | 540 kts | 95° |
| 2026-02-18 10:06 | 47.09729 | 13.02847 | 32803 ft | 541 kts | 95° |
| 2026-02-18 10:06 | 47.09147 | 13.08312 | 32863 ft | 542 kts | 95° |
| 2026-02-18 10:07 | 47.08164 | 13.17412 | 32997 ft | 544 kts | 96° |
| 2026-02-18 10:07 | 47.06796 | 13.29995 | 33039 ft | 532 kts | 95° |
| 2026-02-18 10:08 | 47.05625 | 13.40719 | 33032 ft | 532 kts | 96° |
| 2026-02-18 10:08 | 47.04636 | 13.49696 | 33036 ft | 532 kts | 96° |
| 2026-02-18 10:09 | 47.03460 | 13.60331 | 33040 ft | 532 kts | 96° |
| 2026-02-18 10:09 | 47.01661 | 13.76403 | 33031 ft | 531 kts | 96° |
| 2026-02-18 10:10 | 47.00449 | 13.87090 | 33040 ft | 530 kts | 96° |
| 2026-02-18 10:10 | 46.99230 | 13.97752 | 33025 ft | 530 kts | 96° |
| 2026-02-18 10:11 | 46.98004 | 14.08376 | 33044 ft | 531 kts | 96° |
| 2026-02-18 10:11 | 46.96763 | 14.19031 | 33036 ft | 530 kts | 96° |
| 2026-02-18 10:12 | 46.95512 | 14.29674 | 33028 ft | 530 kts | 96° |
| 2026-02-18 10:12 | 46.94253 | 14.40309 | 33007 ft | 530 kts | 96° |
| 2026-02-18 10:13 | 46.92354 | 14.56193 | 32993 ft | 532 kts | 96° |
| 2026-02-18 10:14 | 46.91066 | 14.66865 | 32979 ft | 532 kts | 96° |
| 2026-02-18 10:14 | 46.89767 | 14.77527 | 32993 ft | 532 kts | 97° |
| 2026-02-18 10:15 | 46.88465 | 14.88129 | 32996 ft | 532 kts | 97° |
| 2026-02-18 10:15 | 46.87138 | 14.98845 | 32984 ft | 533 kts | 97° |
| 2026-02-18 10:16 | 46.85816 | 15.09434 | 33000 ft | 533 kts | 97° |
| 2026-02-18 10:16 | 46.84474 | 15.20104 | 33011 ft | 533 kts | 97° |
| 2026-02-18 10:17 | 46.83124 | 15.30759 | 33014 ft | 534 kts | 97° |
| 2026-02-18 10:17 | 46.81081 | 15.46724 | 33013 ft | 535 kts | 97° |
| 2026-02-18 10:18 | 46.79702 | 15.57394 | 33012 ft | 535 kts | 97° |
| 2026-02-18 10:18 | 46.78310 | 15.68083 | 33023 ft | 535 kts | 97° |
| 2026-02-18 10:19 | 46.76918 | 15.78687 | 33009 ft | 536 kts | 97° |
| 2026-02-18 10:19 | 46.75506 | 15.89369 | 33012 ft | 536 kts | 97° |
| 2026-02-18 10:20 | 46.74083 | 16.00046 | 33014 ft | 536 kts | 97° |
| 2026-02-18 10:20 | 46.72650 | 16.10732 | 33012 ft | 536 kts | 97° |
| 2026-02-18 10:21 | 46.70492 | 16.26657 | 33014 ft | 536 kts | 97° |
| 2026-02-18 10:22 | 46.69035 | 16.37316 | 33016 ft | 536 kts | 97° |
| 2026-02-18 10:22 | 46.67609 | 16.47979 | 33017 ft | 534 kts | 95° |
| 2026-02-18 10:23 | 46.66408 | 16.58574 | 33018 ft | 533 kts | 94° |
| 2026-02-18 10:23 | 46.65234 | 16.69218 | 33018 ft | 533 kts | 95° |
| 2026-02-18 10:24 | 46.64016 | 16.79874 | 33021 ft | 533 kts | 95° |
| 2026-02-18 10:24 | 46.62767 | 16.90520 | 33018 ft | 531 kts | 95° |
| 2026-02-18 10:25 | 46.61510 | 17.01108 | 33022 ft | 530 kts | 95° |
| 2026-02-18 10:25 | 46.59620 | 17.16876 | 33021 ft | 530 kts | 95° |
| 2026-02-18 10:26 | 46.58342 | 17.27438 | 33020 ft | 530 kts | 95° |
| 2026-02-18 10:26 | 46.57055 | 17.37985 | 33023 ft | 529 kts | 95° |
| 2026-02-18 10:27 | 46.55762 | 17.48499 | 33024 ft | 529 kts | 95° |
| 2026-02-18 10:27 | 46.54458 | 17.59024 | 33020 ft | 529 kts | 95° |
| 2026-02-18 10:28 | 46.53153 | 17.69471 | 33028 ft | 528 kts | 95° |
| 2026-02-18 10:28 | 46.51833 | 17.79957 | 33032 ft | 527 kts | 95° |
| 2026-02-18 10:29 | 46.49836 | 17.95676 | 33025 ft | 527 kts | 95° |
| 2026-02-18 10:30 | 46.48500 | 18.06081 | 33026 ft | 526 kts | 96° |
| 2026-02-18 10:30 | 46.47151 | 18.16515 | 33012 ft | 526 kts | 96° |
| 2026-02-18 10:31 | 46.45791 | 18.26955 | 33018 ft | 525 kts | 96° |
| 2026-02-18 10:31 | 46.44432 | 18.37314 | 33023 ft | 526 kts | 96° |
| 2026-02-18 10:32 | 46.43055 | 18.47732 | 33004 ft | 525 kts | 96° |
| 2026-02-18 10:32 | 46.41670 | 18.58130 | 33004 ft | 525 kts | 96° |
| 2026-02-18 10:33 | 46.40273 | 18.68540 | 33005 ft | 525 kts | 96° |
| 2026-02-18 10:33 | 46.38169 | 18.84085 | 33002 ft | 524 kts | 96° |
| 2026-02-18 10:34 | 46.36755 | 18.94432 | 32997 ft | 522 kts | 104° |
| 2026-02-18 10:34 | 46.35305 | 19.04737 | 32996 ft | 523 kts | 96° |
| 2026-02-18 10:35 | 46.33891 | 19.15069 | 32994 ft | 523 kts | 96° |
| 2026-02-18 10:35 | 46.32466 | 19.25373 | 32991 ft | 520 kts | 97° |
| 2026-02-18 10:36 | 46.31038 | 19.35558 | 32987 ft | 518 kts | 97° |
| 2026-02-18 10:36 | 46.30794 | 19.37290 | 32987 ft | 518 kts | 97° |
| 2026-02-18 10:37 | 46.27421 | 19.61013 | 32979 ft | 517 kts | 97° |
| 2026-02-18 10:38 | 46.25960 | 19.71155 | 32973 ft | 514 kts | 97° |
| 2026-02-18 10:38 | 46.24497 | 19.81265 | 32973 ft | 514 kts | 97° |
| 2026-02-18 10:39 | 46.23024 | 19.91380 | 32971 ft | 514 kts | 97° |
| 2026-02-18 10:39 | 46.21541 | 20.01488 | 32968 ft | 514 kts | 97° |
| 2026-02-18 10:40 | 46.20049 | 20.11593 | 32969 ft | 514 kts | 97° |
| 2026-02-18 10:40 | 46.18548 | 20.21690 | 32968 ft | 515 kts | 97° |
| 2026-02-18 10:41 | 46.17046 | 20.31732 | 32983 ft | 515 kts | 98° |
| 2026-02-18 10:41 | 46.14623 | 20.46789 | 32960 ft | 514 kts | 103° |
| 2026-02-18 10:42 | 46.12469 | 20.56623 | 32958 ft | 515 kts | 104° |
| 2026-02-18 10:42 | 46.10259 | 20.66438 | 32952 ft | 515 kts | 104° |
| 2026-02-18 10:43 | 46.08116 | 20.76257 | 32942 ft | 512 kts | 104° |
| 2026-02-18 10:43 | 46.06010 | 20.86015 | 32950 ft | 509 kts | 104° |
| 2026-02-18 10:44 | 46.03919 | 20.95748 | 32956 ft | 509 kts | 104° |
| 2026-02-18 10:44 | 46.01829 | 21.05430 | 32969 ft | 509 kts | 104° |
| 2026-02-18 10:45 | 45.98669 | 21.19954 | 32956 ft | 505 kts | 105° |
| 2026-02-18 10:46 | 45.96556 | 21.29590 | 32960 ft | 505 kts | 105° |
| 2026-02-18 10:46 | 45.94433 | 21.39235 | 32961 ft | 505 kts | 105° |
| 2026-02-18 10:47 | 45.92307 | 21.48853 | 32961 ft | 504 kts | 106° |
| 2026-02-18 10:47 | 45.90192 | 21.58377 | 32946 ft | 503 kts | 106° |
| 2026-02-18 10:48 | 45.88059 | 21.67938 | 32944 ft | 503 kts | 106° |
| 2026-02-18 10:48 | 45.85916 | 21.77501 | 32954 ft | 503 kts | 106° |
| 2026-02-18 10:49 | 45.83771 | 21.87029 | 32950 ft | 500 kts | 107° |
| 2026-02-18 10:49 | 45.80548 | 22.01264 | 32938 ft | 500 kts | 107° |
| 2026-02-18 10:50 | 45.78406 | 22.10676 | 32957 ft | 500 kts | 107° |
| 2026-02-18 10:50 | 45.76245 | 22.20132 | 32957 ft | 498 kts | 108° |
| 2026-02-18 10:51 | 45.74087 | 22.29530 | 32933 ft | 496 kts | 108° |
| 2026-02-18 10:51 | 45.71926 | 22.38896 | 32945 ft | 496 kts | 108° |
| 2026-02-18 10:52 | 45.69753 | 22.48276 | 32934 ft | 496 kts | 108° |
| 2026-02-18 10:52 | 45.67581 | 22.57626 | 32932 ft | 493 kts | 108° |
| 2026-02-18 10:53 | 45.64340 | 22.71486 | 32917 ft | 492 kts | 109° |
| 2026-02-18 10:54 | 45.62159 | 22.80763 | 32887 ft | 492 kts | 109° |
| 2026-02-18 10:54 | 45.59973 | 22.90018 | 32897 ft | 490 kts | 109° |
| 2026-02-18 10:55 | 45.57800 | 22.99189 | 32888 ft | 486 kts | 109° |
| 2026-02-18 10:55 | 45.55621 | 23.08345 | 32871 ft | 486 kts | 110° |
| 2026-02-18 10:56 | 45.53451 | 23.17424 | 32851 ft | 486 kts | 110° |
| 2026-02-18 10:56 | 45.51257 | 23.26567 | 32856 ft | 488 kts | 110° |
| 2026-02-18 10:57 | 45.49429 | 23.34178 | 32839 ft | 488 kts | 111° |
| 2026-02-18 10:57 | 45.46109 | 23.47907 | 32811 ft | 488 kts | 111° |
| 2026-02-18 10:58 | 45.43884 | 23.57045 | 32812 ft | 488 kts | 110° |
| 2026-02-18 10:58 | 45.41649 | 23.66174 | 32797 ft | 489 kts | 111° |
| 2026-02-18 10:59 | 45.39412 | 23.75300 | 32788 ft | 488 kts | 111° |
| 2026-02-18 10:59 | 45.37162 | 23.84443 | 32794 ft | 489 kts | 111° |
| 2026-02-18 11:00 | 45.34909 | 23.93556 | 32781 ft | 489 kts | 111° |
| 2026-02-18 11:00 | 45.32648 | 24.02664 | 32776 ft | 486 kts | 112° |
| 2026-02-18 11:01 | 45.29266 | 24.16225 | 32763 ft | 487 kts | 111° |
| 2026-02-18 11:02 | 45.26986 | 24.25308 | 32762 ft | 488 kts | 111° |
| 2026-02-18 11:02 | 45.24732 | 24.34252 | 32753 ft | 475 kts | 111° |
| 2026-02-18 11:03 | 45.22508 | 24.43054 | 32753 ft | 474 kts | 111° |
| 2026-02-18 11:03 | 45.20273 | 24.51866 | 32743 ft | 474 kts | 111° |
| 2026-02-18 11:04 | 45.18035 | 24.60660 | 32730 ft | 474 kts | 111° |
| 2026-02-18 11:04 | 45.15804 | 24.69396 | 32733 ft | 470 kts | 111° |
| 2026-02-18 11:05 | 45.13573 | 24.78086 | 32726 ft | 469 kts | 111° |
| 2026-02-18 11:05 | 45.10226 | 24.91065 | 32724 ft | 469 kts | 111° |
| 2026-02-18 11:06 | 45.07989 | 24.99715 | 32724 ft | 466 kts | 111° |
| 2026-02-18 11:06 | 45.05755 | 25.08325 | 32724 ft | 465 kts | 111° |
| 2026-02-18 11:07 | 45.03512 | 25.16913 | 32728 ft | 465 kts | 112° |
| 2026-02-18 11:07 | 45.01263 | 25.25492 | 32725 ft | 465 kts | 112° |
| 2026-02-18 11:08 | 44.98887 | 25.33974 | 32727 ft | 463 kts | 116° |
| 2026-02-18 11:08 | 44.96110 | 25.42180 | 32733 ft | 463 kts | 117° |
| 2026-02-18 11:09 | 44.91831 | 25.54354 | 32738 ft | 463 kts | 118° |
| 2026-02-18 11:10 | 44.88955 | 25.62495 | 32737 ft | 462 kts | 118° |
| 2026-02-18 11:10 | 44.86097 | 25.70584 | 32745 ft | 460 kts | 118° |
| 2026-02-18 11:11 | 44.83244 | 25.78643 | 32754 ft | 459 kts | 118° |
| 2026-02-18 11:11 | 44.80384 | 25.86698 | 32758 ft | 460 kts | 118° |
| 2026-02-18 11:12 | 44.77521 | 25.94734 | 32766 ft | 457 kts | 118° |
| 2026-02-18 11:12 | 44.74680 | 26.02693 | 32772 ft | 454 kts | 118° |
| 2026-02-18 11:13 | 44.71834 | 26.10629 | 32774 ft | 456 kts | 118° |
| 2026-02-18 11:13 | 44.67519 | 26.22633 | 32774 ft | 458 kts | 118° |
| 2026-02-18 11:14 | 44.64646 | 26.30602 | 32770 ft | 455 kts | 118° |
| 2026-02-18 11:14 | 44.61800 | 26.38465 | 32771 ft | 455 kts | 118° |
| 2026-02-18 11:15 | 44.58929 | 26.46373 | 32774 ft | 455 kts | 118° |
| 2026-02-18 11:15 | 44.56052 | 26.54274 | 32781 ft | 455 kts | 118° |
| 2026-02-18 11:16 | 44.53174 | 26.62159 | 32779 ft | 454 kts | 118° |
| 2026-02-18 11:16 | 44.50293 | 26.70027 | 32776 ft | 454 kts | 118° |
| 2026-02-18 11:17 | 44.45961 | 26.81817 | 32779 ft | 454 kts | 118° |
| 2026-02-18 11:18 | 44.43060 | 26.89684 | 32770 ft | 454 kts | 118° |
| 2026-02-18 11:18 | 44.40177 | 26.97481 | 32771 ft | 454 kts | 118° |
| 2026-02-18 11:19 | 44.37269 | 27.05323 | 32772 ft | 454 kts | 118° |
| 2026-02-18 11:19 | 44.34358 | 27.13154 | 32775 ft | 454 kts | 119° |
| 2026-02-18 11:20 | 44.31461 | 27.20930 | 32765 ft | 446 kts | 119° |
| 2026-02-18 11:20 | 44.28592 | 27.28606 | 32767 ft | 446 kts | 118° |
| 2026-02-18 11:21 | 44.25734 | 27.36217 | 32758 ft | 445 kts | 119° |
| 2026-02-18 11:21 | 44.21411 | 27.47708 | 32756 ft | 445 kts | 120° |
| 2026-02-18 11:22 | 44.18522 | 27.55348 | 32748 ft | 445 kts | 119° |
| 2026-02-18 11:22 | 44.15631 | 27.62982 | 32737 ft | 444 kts | 120° |
| 2026-02-18 11:23 | 44.12746 | 27.70582 | 32742 ft | 445 kts | 120° |
| 2026-02-18 11:23 | 44.09872 | 27.78140 | 32729 ft | 443 kts | 120° |
| 2026-02-18 11:24 | 44.06986 | 27.85702 | 32717 ft | 442 kts | 120° |
| 2026-02-18 11:24 | 44.04092 | 27.93249 | 32714 ft | 443 kts | 119° |
| 2026-02-18 11:25 | 43.99730 | 28.04624 | 32705 ft | 444 kts | 120° |
| 2026-02-18 11:26 | 43.96835 | 28.12147 | 32688 ft | 440 kts | 120° |
| 2026-02-18 11:26 | 43.93941 | 28.19640 | 32690 ft | 440 kts | 121° |
| 2026-02-18 11:27 | 43.91059 | 28.27072 | 32667 ft | 441 kts | 121° |
| 2026-02-18 11:27 | 43.88146 | 28.34564 | 32634 ft | 440 kts | 121° |
| 2026-02-18 11:28 | 43.85252 | 28.41994 | 32633 ft | 438 kts | 121° |
| 2026-02-18 11:28 | 43.82358 | 28.49413 | 32622 ft | 436 kts | 121° |
| 2026-02-18 11:29 | 43.79462 | 28.56806 | 32619 ft | 437 kts | 121° |
| 2026-02-18 11:29 | 43.75118 | 28.67869 | 32618 ft | 436 kts | 121° |
| 2026-02-18 11:30 | 43.72203 | 28.75261 | 32624 ft | 437 kts | 121° |
| 2026-02-18 11:30 | 43.69126 | 28.82402 | 32634 ft | 434 kts | 126° |
| 2026-02-18 11:31 | 43.65643 | 28.89240 | 32623 ft | 435 kts | 128° |
| 2026-02-18 11:31 | 43.62113 | 28.95957 | 32630 ft | 428 kts | 128° |
| 2026-02-18 11:32 | 43.58605 | 29.02596 | 32635 ft | 429 kts | 129° |
| 2026-02-18 11:32 | 43.55113 | 29.09244 | 32615 ft | 424 kts | 129° |
| 2026-02-18 11:33 | 43.49887 | 29.19142 | 32614 ft | 431 kts | 128° |
| 2026-02-18 11:34 | 43.46367 | 29.25784 | 32597 ft | 427 kts | 128° |
| 2026-02-18 11:34 | 43.42850 | 29.32426 | 32597 ft | 432 kts | 129° |
| 2026-02-18 11:35 | 43.39302 | 29.39115 | 32591 ft | 429 kts | 129° |
| 2026-02-18 11:35 | 43.35787 | 29.45729 | 32575 ft | 430 kts | 128° |
| 2026-02-18 11:36 | 43.32246 | 29.52376 | 32580 ft | 435 kts | 129° |
| 2026-02-18 11:36 | 43.28685 | 29.59014 | 32570 ft | 430 kts | 129° |
| 2026-02-18 11:37 | 43.25115 | 29.65663 | 32558 ft | 434 kts | 128° |
| 2026-02-18 11:37 | 43.19767 | 29.75620 | 32534 ft | 431 kts | 129° |
| 2026-02-18 11:38 | 43.16179 | 29.82262 | 32531 ft | 435 kts | 129° |
| 2026-02-18 11:38 | 43.12604 | 29.88894 | 32538 ft | 430 kts | 129° |
| 2026-02-18 11:39 | 43.09029 | 29.95486 | 32524 ft | 434 kts | 128° |
| 2026-02-18 11:39 | 43.05403 | 30.02162 | 32539 ft | 441 kts | 128° |
| 2026-02-18 11:40 | 43.01731 | 30.08916 | 32518 ft | 442 kts | 128° |
| 2026-02-18 11:40 | 42.98084 | 30.15613 | 32501 ft | 442 kts | 129° |
| 2026-02-18 11:41 | 42.92565 | 30.25701 | 32502 ft | 445 kts | 128° |
| 2026-02-18 11:42 | 42.88852 | 30.32466 | 32500 ft | 446 kts | 128° |
| 2026-02-18 11:42 | 42.85132 | 30.39235 | 32495 ft | 446 kts | 128° |
| 2026-02-18 11:43 | 42.81412 | 30.45989 | 32483 ft | 446 kts | 129° |
| 2026-02-18 11:43 | 42.78314 | 30.51604 | 32501 ft | 446 kts | 129° |
| 2026-02-18 11:44 | 42.74943 | 30.58696 | 32494 ft | 449 kts | 117° |
| 2026-02-18 11:44 | 42.73149 | 30.66850 | 32499 ft | 453 kts | 103° |
| 2026-02-18 11:45 | 42.72199 | 30.75339 | 32484 ft | 455 kts | 100° |
| 2026-02-18 11:45 | 42.70974 | 30.88197 | 32494 ft | 457 kts | 100° |
| 2026-02-18 11:46 | 42.70115 | 30.96759 | 32501 ft | 457 kts | 101° |
| 2026-02-18 11:46 | 42.69229 | 31.05313 | 32501 ft | 457 kts | 101° |
| 2026-02-18 11:47 | 42.68338 | 31.13814 | 32509 ft | 458 kts | 101° |
| 2026-02-18 11:47 | 42.67438 | 31.22359 | 32502 ft | 460 kts | 101° |
| 2026-02-18 11:48 | 42.66521 | 31.30970 | 32511 ft | 462 kts | 101° |
| 2026-02-18 11:48 | 42.65585 | 31.39692 | 32511 ft | 469 kts | 102° |
| 2026-02-18 11:49 | 42.64168 | 31.52815 | 32504 ft | 468 kts | 102° |
| 2026-02-18 11:50 | 42.63222 | 31.61543 | 32517 ft | 466 kts | 102° |
| 2026-02-18 11:50 | 42.62266 | 31.70257 | 32526 ft | 467 kts | 102° |
| 2026-02-18 11:51 | 42.61301 | 31.78988 | 32524 ft | 467 kts | 102° |
| 2026-02-18 11:51 | 42.60330 | 31.87716 | 32521 ft | 467 kts | 102° |
| 2026-02-18 11:52 | 42.59358 | 31.96383 | 32527 ft | 468 kts | 102° |
| 2026-02-18 11:52 | 42.58379 | 32.05118 | 32536 ft | 468 kts | 102° |
| 2026-02-18 11:53 | 42.57400 | 32.13847 | 32539 ft | 468 kts | 102° |
| 2026-02-18 11:53 | 42.55898 | 32.26931 | 32538 ft | 468 kts | 103° |
| 2026-02-18 11:54 | 42.54885 | 32.35670 | 32544 ft | 469 kts | 103° |
| 2026-02-18 11:54 | 42.53868 | 32.44394 | 32548 ft | 467 kts | 103° |
| 2026-02-18 11:55 | 42.52863 | 32.52989 | 32549 ft | 463 kts | 103° |
| 2026-02-18 11:55 | 42.51846 | 32.61611 | 32553 ft | 462 kts | 104° |
| 2026-02-18 11:56 | 42.50822 | 32.70226 | 32559 ft | 463 kts | 104° |
| 2026-02-18 11:56 | 42.49792 | 32.78831 | 32559 ft | 463 kts | 104° |
| 2026-02-18 11:57 | 42.48235 | 32.91742 | 32556 ft | 463 kts | 104° |
| 2026-02-18 11:58 | 42.47194 | 33.00301 | 32560 ft | 463 kts | 104° |
| 2026-02-18 11:58 | 42.46143 | 33.08893 | 32559 ft | 463 kts | 104° |
| 2026-02-18 11:59 | 42.45084 | 33.17507 | 32559 ft | 463 kts | 104° |
| 2026-02-18 11:59 | 42.44018 | 33.26093 | 32550 ft | 463 kts | 104° |
| 2026-02-18 12:00 | 42.42942 | 33.34699 | 32555 ft | 463 kts | 105° |
| 2026-02-18 12:00 | 42.41863 | 33.43293 | 32539 ft | 463 kts | 105° |
| 2026-02-18 12:01 | 42.40790 | 33.51815 | 32551 ft | 460 kts | 105° |
| 2026-02-18 12:01 | 42.39157 | 33.64614 | 32517 ft | 459 kts | 105° |
| 2026-02-18 12:02 | 42.38063 | 33.73133 | 32537 ft | 459 kts | 105° |
| 2026-02-18 12:02 | 42.36964 | 33.81644 | 32542 ft | 459 kts | 105° |
| 2026-02-18 12:03 | 42.35859 | 33.90152 | 32538 ft | 459 kts | 105° |
| 2026-02-18 12:03 | 42.34756 | 33.98651 | 32539 ft | 459 kts | 105° |
| 2026-02-18 12:04 | 42.33641 | 34.07150 | 32535 ft | 459 kts | 106° |
| 2026-02-18 12:04 | 42.32526 | 34.15603 | 32531 ft | 459 kts | 106° |
| 2026-02-18 12:05 | 42.30834 | 34.28353 | 32533 ft | 459 kts | 106° |
| 2026-02-18 12:06 | 42.29699 | 34.36849 | 32519 ft | 459 kts | 106° |
| 2026-02-18 12:06 | 42.28561 | 34.45338 | 32517 ft | 459 kts | 106° |
| 2026-02-18 12:07 | 42.27408 | 34.53831 | 32526 ft | 460 kts | 107° |
| 2026-02-18 12:07 | 42.26249 | 34.62320 | 32527 ft | 460 kts | 107° |
| 2026-02-18 12:08 | 42.24500 | 34.75048 | 32532 ft | 461 kts | 107° |
| 2026-02-18 12:08 | 42.23329 | 34.83531 | 32539 ft | 463 kts | 107° |
| 2026-02-18 12:09 | 42.21543 | 34.96331 | 32530 ft | 463 kts | 107° |
| 2026-02-18 12:10 | 42.20343 | 35.04849 | 32525 ft | 462 kts | 107° |
| 2026-02-18 12:10 | 42.19135 | 35.13387 | 32517 ft | 464 kts | 107° |
| 2026-02-18 12:11 | 42.17919 | 35.21937 | 32517 ft | 464 kts | 107° |
| 2026-02-18 12:11 | 42.16698 | 35.30485 | 32509 ft | 464 kts | 107° |
| 2026-02-18 12:12 | 42.15477 | 35.38983 | 32510 ft | 464 kts | 108° |
| 2026-02-18 12:12 | 42.14242 | 35.47548 | 32489 ft | 466 kts | 108° |
| 2026-02-18 12:13 | 42.12995 | 35.56140 | 32509 ft | 468 kts | 108° |
| 2026-02-18 12:13 | 42.11109 | 35.69055 | 32508 ft | 468 kts | 108° |
| 2026-02-18 12:14 | 42.09846 | 35.77651 | 32486 ft | 468 kts | 108° |
| 2026-02-18 12:14 | 42.08576 | 35.86230 | 32506 ft | 471 kts | 108° |
| 2026-02-18 12:15 | 42.07291 | 35.94885 | 32509 ft | 471 kts | 108° |
| 2026-02-18 12:15 | 42.05999 | 36.03537 | 32509 ft | 471 kts | 108° |
| 2026-02-18 12:16 | 42.04701 | 36.12189 | 32494 ft | 471 kts | 108° |
| 2026-02-18 12:16 | 42.03403 | 36.20760 | 32519 ft | 476 kts | 108° |
| 2026-02-18 12:17 | 42.01413 | 36.33855 | 32519 ft | 476 kts | 108° |
| 2026-02-18 12:18 | 42.00079 | 36.42583 | 32530 ft | 476 kts | 108° |
| 2026-02-18 12:18 | 41.98737 | 36.51305 | 32526 ft | 476 kts | 108° |
| 2026-02-18 12:19 | 41.97395 | 36.59971 | 32536 ft | 477 kts | 108° |
| 2026-02-18 12:19 | 41.96038 | 36.68699 | 32539 ft | 477 kts | 109° |
| 2026-02-18 12:20 | 41.94677 | 36.77405 | 32533 ft | 477 kts | 109° |
| 2026-02-18 12:20 | 41.93303 | 36.86138 | 32550 ft | 480 kts | 109° |
| 2026-02-18 12:21 | 41.91900 | 36.94991 | 32556 ft | 485 kts | 109° |
| 2026-02-18 12:21 | 41.90378 | 37.08461 | 32543 ft | 493 kts | 99° |
| 2026-02-18 12:22 | 41.90163 | 37.17639 | 32555 ft | 494 kts | 97° |
| 2026-02-18 12:22 | 41.90042 | 37.26910 | 32569 ft | 499 kts | 97° |
| 2026-02-18 12:23 | 41.89918 | 37.36244 | 32572 ft | 501 kts | 97° |
| 2026-02-18 12:23 | 41.89773 | 37.45592 | 32578 ft | 501 kts | 97° |
| 2026-02-18 12:24 | 41.89613 | 37.54935 | 32578 ft | 501 kts | 97° |
| 2026-02-18 12:24 | 41.89443 | 37.64295 | 32581 ft | 503 kts | 97° |
| 2026-02-18 12:25 | 41.89169 | 37.78392 | 32581 ft | 507 kts | 98° |
| 2026-02-18 12:26 | 41.88981 | 37.87845 | 32580 ft | 506 kts | 98° |
| 2026-02-18 12:26 | 41.88783 | 37.97300 | 32578 ft | 507 kts | 97° |
| 2026-02-18 12:27 | 41.88577 | 38.06770 | 32573 ft | 509 kts | 97° |
| 2026-02-18 12:27 | 41.88354 | 38.16318 | 32566 ft | 513 kts | 98° |
| 2026-02-18 12:28 | 41.88133 | 38.25878 | 32564 ft | 513 kts | 98° |
| 2026-02-18 12:28 | 41.87904 | 38.35428 | 32553 ft | 512 kts | 98° |
| 2026-02-18 12:29 | 41.87666 | 38.44982 | 32535 ft | 512 kts | 98° |
| 2026-02-18 12:29 | 41.87291 | 38.59390 | 32552 ft | 521 kts | 99° |
| 2026-02-18 12:30 | 41.87024 | 38.69103 | 32550 ft | 520 kts | 99° |
| 2026-02-18 12:30 | 41.86799 | 38.77164 | 32546 ft | 520 kts | 99° |
| 2026-02-18 12:31 | 41.86521 | 38.86855 | 32528 ft | 520 kts | 99° |
| 2026-02-18 12:31 | 41.86230 | 38.96598 | 32552 ft | 524 kts | 99° |
| 2026-02-18 12:32 | 41.85931 | 39.06386 | 32540 ft | 525 kts | 99° |
| 2026-02-18 12:32 | 41.85626 | 39.16186 | 32549 ft | 526 kts | 99° |
| 2026-02-18 12:33 | 41.85151 | 39.30930 | 32551 ft | 527 kts | 99° |
| 2026-02-18 12:34 | 41.84819 | 39.40779 | 32555 ft | 530 kts | 100° |
| 2026-02-18 12:34 | 41.84484 | 39.50580 | 32550 ft | 530 kts | 100° |
| 2026-02-18 12:35 | 41.84144 | 39.60465 | 32553 ft | 529 kts | 100° |
| 2026-02-18 12:35 | 41.83788 | 39.70333 | 32516 ft | 529 kts | 100° |
| 2026-02-18 12:36 | 41.83418 | 39.80250 | 32555 ft | 535 kts | 100° |
| 2026-02-18 12:36 | 41.83042 | 39.90221 | 32553 ft | 535 kts | 100° |
| 2026-02-18 12:37 | 41.82663 | 40.00133 | 32563 ft | 535 kts | 100° |
| 2026-02-18 12:37 | 41.82079 | 40.15075 | 32557 ft | 536 kts | 101° |
| 2026-02-18 12:38 | 41.81681 | 40.25078 | 32553 ft | 539 kts | 101° |
| 2026-02-18 12:38 | 41.81251 | 40.35118 | 32571 ft | 540 kts | 101° |
| 2026-02-18 12:39 | 41.80818 | 40.45172 | 32562 ft | 540 kts | 101° |
| 2026-02-18 12:39 | 41.80381 | 40.55214 | 32568 ft | 539 kts | 101° |
| 2026-02-18 12:40 | 41.79940 | 40.65198 | 32568 ft | 539 kts | 101° |
| 2026-02-18 12:40 | 41.79471 | 40.75232 | 32589 ft | 539 kts | 102° |
| 2026-02-18 12:41 | 41.78720 | 40.90253 | 32593 ft | 538 kts | 101° |
| 2026-02-18 12:42 | 41.78216 | 41.00275 | 32583 ft | 538 kts | 101° |
| 2026-02-18 12:42 | 41.77701 | 41.10193 | 32578 ft | 536 kts | 101° |
| 2026-02-18 12:43 | 41.77178 | 41.20158 | 32579 ft | 535 kts | 101° |
| 2026-02-18 12:43 | 41.76651 | 41.30121 | 32567 ft | 536 kts | 101° |
| 2026-02-18 12:44 | 41.76115 | 41.40079 | 32567 ft | 536 kts | 102° |
| 2026-02-18 12:44 | 41.75567 | 41.50070 | 32561 ft | 538 kts | 102° |
| 2026-02-18 12:45 | 41.75016 | 41.59988 | 32561 ft | 538 kts | 102° |
| 2026-02-18 12:45 | 41.74167 | 41.74971 | 32570 ft | 538 kts | 102° |
| 2026-02-18 12:46 | 41.73592 | 41.84962 | 32576 ft | 538 kts | 102° |
| 2026-02-18 12:46 | 41.72985 | 41.94977 | 32610 ft | 541 kts | 102° |
| 2026-02-18 12:47 | 41.72390 | 42.05033 | 32641 ft | 543 kts | 102° |
| 2026-02-18 12:47 | 41.71781 | 42.15146 | 32800 ft | 546 kts | 102° |
| 2026-02-18 12:48 | 41.71169 | 42.25283 | 32863 ft | 547 kts | 103° |
| 2026-02-18 12:48 | 41.70549 | 42.35368 | 32983 ft | 547 kts | 103° |
| 2026-02-18 12:49 | 41.69578 | 42.50606 | 33175 ft | 547 kts | 103° |
| 2026-02-18 12:50 | 41.68920 | 42.60759 | 33234 ft | 547 kts | 103° |
| 2026-02-18 12:50 | 41.68257 | 42.70904 | 33357 ft | 546 kts | 103° |
| 2026-02-18 12:51 | 41.67585 | 42.81026 | 33480 ft | 546 kts | 103° |
| 2026-02-18 12:51 | 41.66820 | 42.91114 | 33583 ft | 542 kts | 107° |
| 2026-02-18 12:52 | 41.65499 | 43.00930 | 33675 ft | 538 kts | 111° |
| 2026-02-18 12:52 | 41.64052 | 43.10721 | 33780 ft | 536 kts | 110° |
| 2026-02-18 12:53 | 41.62679 | 43.20505 | 33885 ft | 536 kts | 110° |
| 2026-02-18 12:53 | 41.61344 | 43.30334 | 34016 ft | 538 kts | 109° |
| 2026-02-18 12:53 | 41.60678 | 43.35259 | 34065 ft | 540 kts | 110° |
| 2026-02-18 12:54 | 41.59338 | 43.45147 | 34143 ft | 541 kts | 110° |
| 2026-02-18 12:54 | 41.57992 | 43.55034 | 34252 ft | 541 kts | 110° |
| 2026-02-18 12:55 | 41.56635 | 43.64913 | 34336 ft | 540 kts | 110° |
| 2026-02-18 12:55 | 41.55269 | 43.74772 | 34376 ft | 540 kts | 109° |
| 2026-02-18 12:56 | 41.53898 | 43.84589 | 34471 ft | 541 kts | 109° |
| 2026-02-18 12:56 | 41.52510 | 43.94465 | 34597 ft | 541 kts | 110° |
| 2026-02-18 12:57 | 41.51116 | 44.04336 | 34700 ft | 541 kts | 110° |
| 2026-02-18 12:57 | 41.50415 | 44.09270 | 34747 ft | 541 kts | 110° |
| 2026-02-18 12:58 | 41.49007 | 44.19128 | 34817 ft | 542 kts | 110° |
| 2026-02-18 12:58 | 41.47588 | 44.29011 | 34824 ft | 543 kts | 110° |
| 2026-02-18 12:59 | 41.46160 | 44.38906 | 34822 ft | 543 kts | 110° |
| 2026-02-18 12:59 | 41.44723 | 44.48782 | 34816 ft | 542 kts | 110° |
| 2026-02-18 13:00 | 41.43279 | 44.58639 | 34822 ft | 542 kts | 110° |
| 2026-02-18 13:00 | 41.41835 | 44.68430 | 34823 ft | 542 kts | 110° |
| 2026-02-18 13:01 | 41.39638 | 44.83225 | 34812 ft | 542 kts | 111° |
| 2026-02-18 13:01 | 41.38162 | 44.93086 | 34814 ft | 544 kts | 110° |
| 2026-02-18 13:02 | 41.36671 | 45.02980 | 34812 ft | 545 kts | 110° |
| 2026-02-18 13:02 | 41.34743 | 45.12624 | 34812 ft | 534 kts | 118° |
| 2026-02-18 13:03 | 41.32408 | 45.21985 | 34790 ft | 533 kts | 118° |
| 2026-02-18 13:03 | 41.30003 | 45.31266 | 34807 ft | 536 kts | 119° |
| 2026-02-18 13:04 | 41.27567 | 45.40638 | 34821 ft | 535 kts | 119° |
| 2026-02-18 13:04 | 41.25148 | 45.49968 | 34806 ft | 533 kts | 119° |
| 2026-02-18 13:05 | 41.21500 | 45.63968 | 34808 ft | 536 kts | 119° |
| 2026-02-18 13:06 | 41.19053 | 45.73325 | 34806 ft | 535 kts | 119° |
| 2026-02-18 13:06 | 41.16587 | 45.82668 | 34784 ft | 536 kts | 119° |
| 2026-02-18 13:07 | 41.14125 | 45.91952 | 34817 ft | 539 kts | 119° |
| 2026-02-18 13:07 | 41.11621 | 46.01367 | 34819 ft | 540 kts | 119° |
| 2026-02-18 13:08 | 41.09114 | 46.10773 | 34817 ft | 540 kts | 119° |
| 2026-02-18 13:08 | 41.06605 | 46.20152 | 34829 ft | 541 kts | 119° |
| 2026-02-18 13:09 | 41.02833 | 46.34197 | 34831 ft | 541 kts | 119° |
| 2026-02-18 13:09 | 41.00323 | 46.43599 | 34790 ft | 541 kts | 119° |
| 2026-02-18 13:10 | 40.97815 | 46.52977 | 34832 ft | 539 kts | 119° |
| 2026-02-18 13:10 | 40.95307 | 46.62302 | 34840 ft | 538 kts | 119° |
| 2026-02-18 13:11 | 40.92785 | 46.71630 | 34840 ft | 538 kts | 119° |
| 2026-02-18 13:11 | 40.91012 | 46.81298 | 34841 ft | 555 kts | 101° |
| 2026-02-18 13:12 | 40.90999 | 46.86435 | 34839 ft | 564 kts | 89° |
| 2026-02-18 13:12 | 40.91621 | 46.91591 | 34836 ft | 568 kts | 82° |
| 2026-02-18 13:12 | 40.93410 | 47.01802 | 34849 ft | 572 kts | 79° |
| 2026-02-18 13:13 | 40.96364 | 47.17116 | 34858 ft | 572 kts | 79° |
| 2026-02-18 13:14 | 40.98271 | 47.27338 | 34874 ft | 572 kts | 79° |
| 2026-02-18 13:14 | 41.00124 | 47.37505 | 34859 ft | 572 kts | 79° |
| 2026-02-18 13:15 | 41.01975 | 47.47758 | 34874 ft | 572 kts | 79° |
| 2026-02-18 13:15 | 41.03816 | 47.58001 | 34878 ft | 572 kts | 79° |
| 2026-02-18 13:16 | 41.05653 | 47.68261 | 34890 ft | 572 kts | 80° |
| 2026-02-18 13:16 | 41.07485 | 47.78547 | 34878 ft | 573 kts | 79° |
| 2026-02-18 13:17 | 41.10371 | 47.93928 | 34866 ft | 575 kts | 72° |
| 2026-02-18 13:17 | 41.13948 | 48.03326 | 34877 ft | 573 kts | 55° |
| 2026-02-18 13:18 | 41.18499 | 48.11955 | 34873 ft | 568 kts | 52° |
| 2026-02-18 13:18 | 41.22398 | 48.18967 | 34862 ft | 568 kts | 51° |
| 2026-02-18 13:19 | 41.27075 | 48.27422 | 34859 ft | 565 kts | 52° |
| 2026-02-18 13:19 | 41.31690 | 48.35843 | 34862 ft | 562 kts | 52° |
| 2026-02-18 13:20 | 41.36309 | 48.44253 | 34869 ft | 562 kts | 52° |
| 2026-02-18 13:20 | 41.40914 | 48.52691 | 34885 ft | 563 kts | 52° |
| 2026-02-18 13:21 | 41.47853 | 48.65272 | 34897 ft | 563 kts | 51° |
| 2026-02-18 13:22 | 41.52545 | 48.73628 | 34899 ft | 563 kts | 51° |
| 2026-02-18 13:22 | 41.57077 | 48.82173 | 34902 ft | 564 kts | 54° |
| 2026-02-18 13:23 | 41.61406 | 48.90944 | 34900 ft | 565 kts | 55° |
| 2026-02-18 13:23 | 41.65731 | 48.99717 | 34897 ft | 565 kts | 54° |
| 2026-02-18 13:24 | 41.70057 | 49.08407 | 34895 ft | 564 kts | 54° |
| 2026-02-18 13:24 | 41.74431 | 49.17166 | 34898 ft | 565 kts | 54° |
| 2026-02-18 13:25 | 41.80979 | 49.30317 | 34892 ft | 565 kts | 54° |
| 2026-02-18 13:25 | 41.85466 | 49.38888 | 34892 ft | 564 kts | 51° |
| 2026-02-18 13:26 | 41.90168 | 49.47337 | 34886 ft | 564 kts | 50° |
| 2026-02-18 13:26 | 41.94856 | 49.55805 | 34884 ft | 564 kts | 50° |
| 2026-02-18 13:27 | 41.99500 | 49.64322 | 34895 ft | 565 kts | 51° |
| 2026-02-18 13:27 | 42.04136 | 49.72895 | 34880 ft | 568 kts | 51° |
| 2026-02-18 13:28 | 42.08783 | 49.81519 | 34881 ft | 568 kts | 51° |
| 2026-02-18 13:28 | 42.13421 | 49.90147 | 34885 ft | 569 kts | 51° |
| 2026-02-18 13:29 | 42.20356 | 50.03086 | 34877 ft | 570 kts | 51° |
| 2026-02-18 13:30 | 42.24996 | 50.11776 | 34879 ft | 570 kts | 51° |
| 2026-02-18 13:30 | 42.29629 | 50.20477 | 34874 ft | 570 kts | 51° |
| 2026-02-18 13:31 | 42.34250 | 50.29182 | 34873 ft | 570 kts | 51° |
| 2026-02-18 13:31 | 42.38863 | 50.37896 | 34868 ft | 569 kts | 51° |
| 2026-02-18 13:32 | 42.43444 | 50.46574 | 34870 ft | 568 kts | 51° |
| 2026-02-18 13:32 | 42.48160 | 50.55143 | 34868 ft | 567 kts | 48° |
| 2026-02-18 13:33 | 42.55472 | 50.67717 | 34863 ft | 565 kts | 48° |
| 2026-02-18 13:33 | 42.60306 | 50.76126 | 34863 ft | 565 kts | 48° |
| 2026-02-18 13:34 | 42.65110 | 50.84580 | 34861 ft | 565 kts | 48° |
| 2026-02-18 13:34 | 42.69890 | 50.93035 | 34860 ft | 564 kts | 48° |
| 2026-02-18 13:35 | 42.74642 | 51.01460 | 34860 ft | 564 kts | 49° |
| 2026-02-18 13:35 | 42.79414 | 51.09942 | 34857 ft | 563 kts | 48° |
| 2026-02-18 13:36 | 42.84171 | 51.18420 | 34855 ft | 563 kts | 48° |
| 2026-02-18 13:36 | 42.88927 | 51.26920 | 34856 ft | 563 kts | 49° |
| 2026-02-18 13:37 | 42.96040 | 51.39679 | 34853 ft | 563 kts | 49° |
| 2026-02-18 13:38 | 43.00746 | 51.48149 | 34854 ft | 563 kts | 49° |
| 2026-02-18 13:38 | 43.05475 | 51.56686 | 34854 ft | 563 kts | 49° |
| 2026-02-18 13:39 | 43.10201 | 51.65244 | 34854 ft | 563 kts | 49° |
| 2026-02-18 13:39 | 43.14916 | 51.73805 | 34851 ft | 563 kts | 49° |
| 2026-02-18 13:40 | 43.19626 | 51.82382 | 34851 ft | 563 kts | 49° |
| 2026-02-18 13:40 | 43.24338 | 51.90987 | 34851 ft | 563 kts | 49° |
| 2026-02-18 13:41 | 43.31383 | 52.03900 | 34852 ft | 563 kts | 49° |
| 2026-02-18 13:41 | 43.36036 | 52.12462 | 34851 ft | 562 kts | 49° |
| 2026-02-18 13:42 | 43.40712 | 52.21091 | 34851 ft | 562 kts | 49° |
| 2026-02-18 13:42 | 43.45382 | 52.29732 | 34851 ft | 562 kts | 49° |
| 2026-02-18 13:43 | 43.50029 | 52.38358 | 34853 ft | 561 kts | 49° |
| 2026-02-18 13:43 | 43.54672 | 52.46998 | 34859 ft | 561 kts | 50° |
| 2026-02-18 13:44 | 43.59313 | 52.55663 | 34862 ft | 560 kts | 50° |
| 2026-02-18 13:44 | 43.63933 | 52.64314 | 34868 ft | 560 kts | 50° |
| 2026-02-18 13:45 | 43.70825 | 52.77287 | 34879 ft | 561 kts | 50° |
| 2026-02-18 13:46 | 43.75433 | 52.86020 | 34873 ft | 561 kts | 50° |
| 2026-02-18 13:46 | 43.80033 | 52.94760 | 34876 ft | 561 kts | 50° |
| 2026-02-18 13:47 | 43.84584 | 53.03431 | 34879 ft | 561 kts | 50° |
| 2026-02-18 13:47 | 43.89171 | 53.12192 | 34879 ft | 560 kts | 50° |
| 2026-02-18 13:48 | 43.93746 | 53.20956 | 34877 ft | 561 kts | 50° |
| 2026-02-18 13:48 | 43.98311 | 53.29742 | 34883 ft | 561 kts | 50° |
| 2026-02-18 13:49 | 44.05155 | 53.42958 | 34875 ft | 562 kts | 50° |
| 2026-02-18 13:49 | 44.09710 | 53.51786 | 34876 ft | 562 kts | 50° |
| 2026-02-18 13:50 | 44.14259 | 53.60627 | 34873 ft | 561 kts | 50° |
| 2026-02-18 13:50 | 44.18770 | 53.69420 | 34879 ft | 561 kts | 50° |
| 2026-02-18 13:51 | 44.23301 | 53.78280 | 34876 ft | 561 kts | 50° |
| 2026-02-18 13:51 | 44.27828 | 53.87160 | 34874 ft | 561 kts | 50° |
| 2026-02-18 13:52 | 44.32349 | 53.96053 | 34876 ft | 561 kts | 51° |
| 2026-02-18 13:52 | 44.36866 | 54.04967 | 34881 ft | 561 kts | 51° |
| 2026-02-18 13:53 | 44.45862 | 54.22804 | 34876 ft | 561 kts | 51° |
| 2026-02-18 13:54 | 44.50356 | 54.31754 | 34885 ft | 562 kts | 51° |
| 2026-02-18 13:55 | 44.57069 | 54.45177 | 34876 ft | 563 kts | 51° |
| 2026-02-18 13:55 | 44.61559 | 54.54190 | 34876 ft | 563 kts | 51° |
| 2026-02-18 13:56 | 44.66210 | 54.63005 | 34878 ft | 557 kts | 43° |
| 2026-02-18 13:56 | 44.71690 | 54.70612 | 34874 ft | 552 kts | 37° |
| 2026-02-18 13:57 | 44.80196 | 54.81541 | 34879 ft | 552 kts | 36° |
| 2026-02-18 13:57 | 44.85877 | 54.88798 | 34872 ft | 551 kts | 36° |
| 2026-02-18 13:58 | 44.91541 | 54.96084 | 34878 ft | 551 kts | 36° |
| 2026-02-18 13:58 | 44.97206 | 55.03409 | 34878 ft | 551 kts | 37° |
| 2026-02-18 13:59 | 45.02826 | 55.10700 | 34875 ft | 553 kts | 37° |
| 2026-02-18 13:59 | 45.08025 | 55.18814 | 34874 ft | 564 kts | 53° |
| 2026-02-18 14:00 | 45.09949 | 55.23668 | 34879 ft | 567 kts | 64° |
| 2026-02-18 14:00 | 45.11551 | 55.28793 | 34880 ft | 568 kts | 66° |
| 2026-02-18 14:00 | 45.14453 | 55.39170 | 34880 ft | 569 kts | 69° |
| 2026-02-18 14:01 | 45.18653 | 55.54890 | 34876 ft | 568 kts | 69° |
| 2026-02-18 14:02 | 45.21479 | 55.65368 | 34877 ft | 568 kts | 68° |
| 2026-02-18 14:02 | 45.24311 | 55.75827 | 34875 ft | 567 kts | 69° |
| 2026-02-18 14:03 | 45.27133 | 55.86280 | 34875 ft | 567 kts | 69° |
| 2026-02-18 14:03 | 45.29945 | 55.96751 | 34869 ft | 566 kts | 69° |
| 2026-02-18 14:04 | 45.32720 | 56.07133 | 34869 ft | 566 kts | 69° |
| 2026-02-18 14:04 | 45.35503 | 56.17593 | 34871 ft | 565 kts | 69° |
| 2026-02-18 14:05 | 45.39657 | 56.33291 | 34870 ft | 565 kts | 69° |
| 2026-02-18 14:05 | 45.42421 | 56.43794 | 34867 ft | 565 kts | 70° |
| 2026-02-18 14:06 | 45.45169 | 56.54284 | 34870 ft | 565 kts | 70° |
| 2026-02-18 14:06 | 45.47888 | 56.64707 | 34862 ft | 565 kts | 70° |
| 2026-02-18 14:07 | 45.50624 | 56.75244 | 34865 ft | 565 kts | 70° |
| 2026-02-18 14:07 | 45.52884 | 56.83988 | 34865 ft | 565 kts | 70° |
| 2026-02-18 14:08 | 45.55594 | 56.94511 | 34865 ft | 565 kts | 70° |
| 2026-02-18 14:08 | 45.58296 | 57.05054 | 34858 ft | 565 kts | 70° |
| 2026-02-18 14:09 | 45.62325 | 57.20865 | 34862 ft | 564 kts | 70° |
| 2026-02-18 14:10 | 45.64978 | 57.31326 | 34859 ft | 564 kts | 70° |
| 2026-02-18 14:10 | 45.67639 | 57.41872 | 34861 ft | 564 kts | 71° |
| 2026-02-18 14:11 | 45.70288 | 57.52421 | 34859 ft | 563 kts | 71° |
| 2026-02-18 14:11 | 45.72931 | 57.62995 | 34859 ft | 563 kts | 71° |
| 2026-02-18 14:12 | 45.75553 | 57.73519 | 34855 ft | 563 kts | 71° |
| 2026-02-18 14:12 | 45.78171 | 57.84095 | 34860 ft | 563 kts | 71° |
| 2026-02-18 14:13 | 45.82078 | 57.99976 | 34859 ft | 563 kts | 71° |
| 2026-02-18 14:13 | 45.84669 | 58.10565 | 34862 ft | 563 kts | 71° |
| 2026-02-18 14:14 | 45.87253 | 58.21173 | 34859 ft | 563 kts | 71° |
| 2026-02-18 14:14 | 45.89827 | 58.31792 | 34859 ft | 563 kts | 71° |
| 2026-02-18 14:15 | 45.93652 | 58.47662 | 34855 ft | 562 kts | 72° |
| 2026-02-18 14:16 | 45.97467 | 58.63606 | 34859 ft | 562 kts | 72° |
| 2026-02-18 14:16 | 46.00000 | 58.74253 | 34857 ft | 562 kts | 72° |
| 2026-02-18 14:17 | 46.03773 | 58.90214 | 34857 ft | 561 kts | 72° |
| 2026-02-18 14:18 | 46.06258 | 59.00789 | 34856 ft | 561 kts | 72° |
| 2026-02-18 14:18 | 46.08749 | 59.11439 | 34857 ft | 561 kts | 72° |
| 2026-02-18 14:19 | 46.11228 | 59.22096 | 34856 ft | 560 kts | 72° |
| 2026-02-18 14:19 | 46.13693 | 59.32739 | 34856 ft | 559 kts | 72° |
| 2026-02-18 14:20 | 46.16145 | 59.43381 | 34846 ft | 559 kts | 72° |
| 2026-02-18 14:20 | 46.18586 | 59.54025 | 34840 ft | 558 kts | 72° |
| 2026-02-18 14:21 | 46.22209 | 59.69920 | 34853 ft | 557 kts | 73° |
| 2026-02-18 14:21 | 46.24620 | 59.80569 | 34857 ft | 557 kts | 73° |
| 2026-02-18 14:22 | 46.27004 | 59.91235 | 34851 ft | 557 kts | 73° |
| 2026-02-18 14:22 | 46.29374 | 60.01899 | 34849 ft | 556 kts | 73° |
| 2026-02-18 14:23 | 46.31734 | 60.12553 | 34853 ft | 556 kts | 73° |
| 2026-02-18 14:23 | 46.34084 | 60.23211 | 34852 ft | 556 kts | 73° |
| 2026-02-18 14:24 | 46.36410 | 60.33813 | 34852 ft | 556 kts | 73° |
| 2026-02-18 14:24 | 46.38739 | 60.44481 | 34848 ft | 556 kts | 73° |
| 2026-02-18 14:25 | 46.42222 | 60.60535 | 34851 ft | 556 kts | 73° |
| 2026-02-18 14:26 | 46.44528 | 60.71238 | 34851 ft | 556 kts | 74° |
| 2026-02-18 14:26 | 46.46825 | 60.81949 | 34848 ft | 556 kts | 74° |
| 2026-02-18 14:27 | 46.49110 | 60.92664 | 34849 ft | 556 kts | 74° |
| 2026-02-18 14:27 | 46.51371 | 61.03321 | 34848 ft | 556 kts | 74° |
| 2026-02-18 14:28 | 46.53636 | 61.14052 | 34845 ft | 555 kts | 74° |
| 2026-02-18 14:28 | 46.55890 | 61.24787 | 34850 ft | 555 kts | 74° |
| 2026-02-18 14:29 | 46.59254 | 61.40913 | 34851 ft | 556 kts | 75° |
| 2026-02-18 14:29 | 46.61486 | 61.51686 | 34849 ft | 556 kts | 75° |
| 2026-02-18 14:30 | 46.63710 | 61.62482 | 34858 ft | 556 kts | 75° |
| 2026-02-18 14:30 | 46.65921 | 61.73268 | 34856 ft | 556 kts | 75° |
| 2026-02-18 14:31 | 46.68125 | 61.84078 | 34853 ft | 557 kts | 75° |
| 2026-02-18 14:31 | 46.70305 | 61.94829 | 34854 ft | 557 kts | 75° |
| 2026-02-18 14:32 | 46.72493 | 62.05678 | 34859 ft | 557 kts | 75° |
| 2026-02-18 14:32 | 46.74667 | 62.16521 | 34859 ft | 557 kts | 75° |
| 2026-02-18 14:33 | 46.77915 | 62.32829 | 34860 ft | 558 kts | 75° |
| 2026-02-18 14:34 | 46.80064 | 62.43692 | 34860 ft | 558 kts | 75° |
| 2026-02-18 14:34 | 46.82194 | 62.54526 | 34858 ft | 558 kts | 75° |
| 2026-02-18 14:35 | 46.84332 | 62.65447 | 34863 ft | 558 kts | 75° |
| 2026-02-18 14:35 | 46.86454 | 62.76355 | 34864 ft | 558 kts | 75° |
| 2026-02-18 14:36 | 46.88568 | 62.87284 | 34863 ft | 558 kts | 76° |
| 2026-02-18 14:36 | 46.90672 | 62.98223 | 34869 ft | 559 kts | 76° |
| 2026-02-18 14:37 | 46.93796 | 63.14579 | 34876 ft | 559 kts | 76° |
| 2026-02-18 14:37 | 46.95875 | 63.25545 | 34874 ft | 558 kts | 76° |
| 2026-02-18 14:38 | 46.97940 | 63.36501 | 34879 ft | 559 kts | 76° |
| 2026-02-18 14:38 | 47.00000 | 63.47493 | 34878 ft | 559 kts | 76° |
| 2026-02-18 14:39 | 47.02047 | 63.58480 | 34884 ft | 559 kts | 76° |
| 2026-02-18 14:39 | 47.04086 | 63.69486 | 34884 ft | 559 kts | 76° |
| 2026-02-18 14:40 | 47.06101 | 63.80431 | 34880 ft | 559 kts | 76° |
| 2026-02-18 14:40 | 47.08122 | 63.91474 | 34890 ft | 559 kts | 76° |
| 2026-02-18 14:41 | 47.11125 | 64.08009 | 34884 ft | 559 kts | 76° |
| 2026-02-18 14:42 | 47.13116 | 64.19051 | 34889 ft | 559 kts | 76° |
| 2026-02-18 14:42 | 47.15096 | 64.30100 | 34892 ft | 559 kts | 76° |
| 2026-02-18 14:43 | 47.17065 | 64.41156 | 34897 ft | 559 kts | 76° |
| 2026-02-18 14:43 | 47.19012 | 64.52158 | 34896 ft | 559 kts | 76° |
| 2026-02-18 14:44 | 47.20963 | 64.63223 | 34897 ft | 559 kts | 76° |
| 2026-02-18 14:44 | 47.22911 | 64.74304 | 34900 ft | 559 kts | 77° |
| 2026-02-18 14:45 | 47.25814 | 64.90949 | 34908 ft | 559 kts | 77° |
| 2026-02-18 14:45 | 47.27734 | 65.02047 | 34902 ft | 559 kts | 77° |
| 2026-02-18 14:46 | 47.29643 | 65.13148 | 34913 ft | 559 kts | 77° |
| 2026-02-18 14:46 | 47.31532 | 65.24249 | 34910 ft | 559 kts | 77° |
| 2026-02-18 14:47 | 47.33406 | 65.35328 | 34908 ft | 560 kts | 77° |
| 2026-02-18 14:47 | 47.35280 | 65.46464 | 34913 ft | 560 kts | 77° |
| 2026-02-18 14:48 | 47.37145 | 65.57621 | 34910 ft | 560 kts | 77° |
| 2026-02-18 14:48 | 47.39002 | 65.68798 | 34916 ft | 561 kts | 77° |
| 2026-02-18 14:49 | 47.41771 | 65.85598 | 34915 ft | 561 kts | 77° |
| 2026-02-18 14:50 | 47.43653 | 65.96714 | 34916 ft | 562 kts | 77° |
| 2026-02-18 14:50 | 47.45575 | 66.07903 | 34917 ft | 561 kts | 76° |
| 2026-02-18 14:51 | 47.47480 | 66.19093 | 34905 ft | 560 kts | 77° |
| 2026-02-18 14:51 | 47.49362 | 66.30280 | 34910 ft | 560 kts | 77° |
| 2026-02-18 14:52 | 47.51230 | 66.41473 | 34916 ft | 560 kts | 77° |
| 2026-02-18 14:52 | 47.53084 | 66.52665 | 34916 ft | 559 kts | 77° |
| 2026-02-18 14:53 | 47.55832 | 66.69369 | 34910 ft | 559 kts | 77° |
| 2026-02-18 14:53 | 47.57642 | 66.80574 | 34869 ft | 559 kts | 78° |
| 2026-02-18 14:54 | 47.59382 | 66.91788 | 34913 ft | 558 kts | 78° |
| 2026-02-18 14:54 | 47.60812 | 67.01093 | 34908 ft | 557 kts | 78° |
| 2026-02-18 14:55 | 47.62535 | 67.12312 | 34912 ft | 557 kts | 78° |
| 2026-02-18 14:55 | 47.64251 | 67.23526 | 34914 ft | 557 kts | 78° |
| 2026-02-18 14:56 | 47.65958 | 67.34739 | 34908 ft | 556 kts | 78° |
| 2026-02-18 14:56 | 47.67650 | 67.45941 | 34906 ft | 556 kts | 78° |
| 2026-02-18 14:57 | 47.70159 | 67.62705 | 34913 ft | 556 kts | 79° |
| 2026-02-18 14:58 | 47.71825 | 67.73935 | 34912 ft | 557 kts | 79° |
| 2026-02-18 14:58 | 47.73281 | 67.85222 | 34912 ft | 555 kts | 84° |
| 2026-02-18 14:59 | 47.74292 | 67.96584 | 34914 ft | 555 kts | 85° |
| 2026-02-18 14:59 | 47.75272 | 68.07891 | 34914 ft | 555 kts | 84° |
| 2026-02-18 15:00 | 47.76319 | 68.19264 | 34924 ft | 555 kts | 84° |
| 2026-02-18 15:00 | 47.77393 | 68.30652 | 34930 ft | 555 kts | 84° |
| 2026-02-18 15:01 | 47.78991 | 68.47728 | 34929 ft | 556 kts | 84° |
| 2026-02-18 15:01 | 47.80042 | 68.59168 | 34932 ft | 558 kts | 84° |
| 2026-02-18 15:02 | 47.81075 | 68.70546 | 34937 ft | 559 kts | 84° |
| 2026-02-18 15:02 | 47.81919 | 68.82016 | 34945 ft | 555 kts | 92° |
| 2026-02-18 15:03 | 47.81801 | 68.99245 | 34957 ft | 556 kts | 95° |
| 2026-02-18 15:04 | 47.81568 | 69.10750 | 34956 ft | 556 kts | 96° |
| 2026-02-18 15:04 | 47.81324 | 69.22262 | 34960 ft | 556 kts | 96° |
| 2026-02-18 15:05 | 47.80958 | 69.39519 | 34970 ft | 557 kts | 96° |
| 2026-02-18 15:05 | 47.80704 | 69.51049 | 34977 ft | 557 kts | 96° |
| 2026-02-18 15:06 | 47.80441 | 69.62497 | 34977 ft | 557 kts | 96° |
| 2026-02-18 15:06 | 47.80164 | 69.74023 | 34982 ft | 557 kts | 96° |
| 2026-02-18 15:07 | 47.79876 | 69.85537 | 34983 ft | 557 kts | 96° |
| 2026-02-18 15:07 | 47.79575 | 69.97057 | 34994 ft | 557 kts | 96° |
| 2026-02-18 15:08 | 47.79264 | 70.08568 | 34999 ft | 557 kts | 96° |
| 2026-02-18 15:08 | 47.78941 | 70.20081 | 34971 ft | 557 kts | 96° |
| 2026-02-18 15:09 | 47.78434 | 70.37366 | 35004 ft | 558 kts | 96° |
| 2026-02-18 15:10 | 47.78082 | 70.48885 | 35010 ft | 558 kts | 96° |
| 2026-02-18 15:10 | 47.77721 | 70.60335 | 35009 ft | 558 kts | 96° |
| 2026-02-18 15:11 | 47.77348 | 70.71847 | 35019 ft | 558 kts | 96° |
| 2026-02-18 15:11 | 47.76958 | 70.83370 | 35022 ft | 557 kts | 96° |
| 2026-02-18 15:12 | 47.76554 | 70.94900 | 35022 ft | 557 kts | 96° |
| 2026-02-18 15:12 | 47.76141 | 71.06398 | 35026 ft | 557 kts | 96° |
| 2026-02-18 15:13 | 47.75501 | 71.23669 | 35036 ft | 557 kts | 96° |
| 2026-02-18 15:13 | 47.75063 | 71.35099 | 35032 ft | 558 kts | 96° |
| 2026-02-18 15:14 | 47.74610 | 71.46607 | 35040 ft | 558 kts | 96° |
| 2026-02-18 15:14 | 47.74146 | 71.58121 | 35037 ft | 558 kts | 97° |
| 2026-02-18 15:15 | 47.73671 | 71.69616 | 35039 ft | 557 kts | 96° |
| 2026-02-18 15:15 | 47.73184 | 71.81121 | 35036 ft | 557 kts | 96° |
| 2026-02-18 15:16 | 47.72620 | 71.92614 | 35033 ft | 557 kts | 98° |
| 2026-02-18 15:16 | 47.71935 | 72.03996 | 35034 ft | 557 kts | 98° |
| 2026-02-18 15:17 | 47.70889 | 72.21173 | 35034 ft | 557 kts | 98° |
| 2026-02-18 15:18 | 47.70198 | 72.32627 | 35027 ft | 557 kts | 97° |
| 2026-02-18 15:18 | 47.69502 | 72.44073 | 35030 ft | 556 kts | 98° |
| 2026-02-18 15:19 | 47.68793 | 72.55524 | 35031 ft | 556 kts | 98° |
| 2026-02-18 15:19 | 47.68072 | 72.66961 | 35026 ft | 556 kts | 98° |
| 2026-02-18 15:20 | 47.67345 | 72.78308 | 35034 ft | 556 kts | 98° |
| 2026-02-18 15:20 | 47.66601 | 72.89733 | 35034 ft | 556 kts | 98° |
| 2026-02-18 15:21 | 47.65463 | 73.06878 | 35030 ft | 557 kts | 98° |
| 2026-02-18 15:21 | 47.64690 | 73.18318 | 35034 ft | 557 kts | 98° |
| 2026-02-18 15:22 | 47.63906 | 73.29741 | 34992 ft | 557 kts | 98° |
| 2026-02-18 15:22 | 47.63112 | 73.41151 | 35034 ft | 555 kts | 98° |
| 2026-02-18 15:23 | 47.62314 | 73.52450 | 35040 ft | 555 kts | 98° |
| 2026-02-18 15:23 | 47.61498 | 73.63821 | 35039 ft | 555 kts | 98° |
| 2026-02-18 15:24 | 47.60671 | 73.75209 | 35038 ft | 555 kts | 98° |
| 2026-02-18 15:24 | 47.59832 | 73.86589 | 35038 ft | 555 kts | 98° |
| 2026-02-18 15:25 | 47.58554 | 74.03645 | 35037 ft | 555 kts | 98° |
| 2026-02-18 15:26 | 47.57694 | 74.14940 | 35046 ft | 555 kts | 98° |
| 2026-02-18 15:26 | 47.56815 | 74.26319 | 35030 ft | 555 kts | 98° |
| 2026-02-18 15:27 | 47.55925 | 74.37689 | 35040 ft | 554 kts | 98° |
| 2026-02-18 15:27 | 47.55033 | 74.48956 | 35031 ft | 555 kts | 98° |
| 2026-02-18 15:28 | 47.54123 | 74.60291 | 35028 ft | 555 kts | 98° |
| 2026-02-18 15:28 | 47.53199 | 74.71661 | 35036 ft | 555 kts | 98° |
| 2026-02-18 15:29 | 47.51796 | 74.88660 | 35042 ft | 555 kts | 98° |
| 2026-02-18 15:29 | 47.50846 | 74.99995 | 35046 ft | 555 kts | 98° |
| 2026-02-18 15:30 | 47.49886 | 75.11318 | 35049 ft | 555 kts | 98° |
| 2026-02-18 15:30 | 47.48921 | 75.22561 | 35065 ft | 555 kts | 99° |
| 2026-02-18 15:31 | 47.47939 | 75.33864 | 35056 ft | 554 kts | 98° |
| 2026-02-18 15:31 | 47.46948 | 75.45137 | 35067 ft | 553 kts | 98° |
| 2026-02-18 15:32 | 47.45948 | 75.56396 | 35069 ft | 552 kts | 98° |
| 2026-02-18 15:32 | 47.44934 | 75.67676 | 35070 ft | 552 kts | 98° |
| 2026-02-18 15:33 | 47.43402 | 75.84480 | 35077 ft | 553 kts | 98° |
| 2026-02-18 15:34 | 47.42361 | 75.95743 | 35089 ft | 553 kts | 98° |
| 2026-02-18 15:34 | 47.41309 | 76.07002 | 35098 ft | 553 kts | 98° |
| 2026-02-18 15:35 | 47.40249 | 76.18231 | 35093 ft | 553 kts | 98° |
| 2026-02-18 15:35 | 47.39176 | 76.29465 | 35099 ft | 551 kts | 98° |
| 2026-02-18 15:36 | 47.38106 | 76.40559 | 35107 ft | 548 kts | 98° |
| 2026-02-18 15:36 | 47.37023 | 76.51676 | 35115 ft | 547 kts | 98° |
| 2026-02-18 15:37 | 47.35377 | 76.68340 | 35124 ft | 548 kts | 98° |
| 2026-02-18 15:37 | 47.34264 | 76.79470 | 35130 ft | 548 kts | 98° |
| 2026-02-18 15:38 | 47.33141 | 76.90587 | 35127 ft | 548 kts | 99° |
| 2026-02-18 15:38 | 47.32008 | 77.01700 | 35132 ft | 548 kts | 99° |
| 2026-02-18 15:39 | 47.30999 | 77.12841 | 35133 ft | 548 kts | 95° |
| 2026-02-18 15:39 | 47.30475 | 77.24058 | 35132 ft | 548 kts | 93° |
| 2026-02-18 15:40 | 47.30001 | 77.35199 | 35131 ft | 547 kts | 93° |
| 2026-02-18 15:40 | 47.29443 | 77.46362 | 35132 ft | 546 kts | 94° |
| 2026-02-18 15:41 | 47.28515 | 77.63101 | 35144 ft | 546 kts | 94° |
| 2026-02-18 15:42 | 47.27987 | 77.72357 | 35141 ft | 546 kts | 94° |
| 2026-02-18 15:42 | 47.27238 | 77.85310 | 35140 ft | 546 kts | 94° |
| 2026-02-18 15:43 | 47.26690 | 77.94639 | 35146 ft | 546 kts | 94° |
| 2026-02-18 15:43 | 47.26027 | 78.05775 | 35146 ft | 546 kts | 94° |
| 2026-02-18 15:44 | 47.25358 | 78.16841 | 35147 ft | 546 kts | 94° |
| 2026-02-18 15:44 | 47.24673 | 78.27978 | 35146 ft | 546 kts | 94° |
| 2026-02-18 15:45 | 47.23624 | 78.44704 | 35155 ft | 547 kts | 94° |
| 2026-02-18 15:45 | 47.22910 | 78.55862 | 35131 ft | 547 kts | 94° |
| 2026-02-18 15:46 | 47.21823 | 78.72535 | 35170 ft | 545 kts | 95° |
| 2026-02-18 15:47 | 47.21091 | 78.83554 | 35173 ft | 545 kts | 94° |
| 2026-02-18 15:47 | 47.20342 | 78.94665 | 35173 ft | 546 kts | 95° |
| 2026-02-18 15:48 | 47.19581 | 79.05793 | 35175 ft | 546 kts | 95° |
| 2026-02-18 15:48 | 47.18810 | 79.16912 | 35173 ft | 546 kts | 95° |
| 2026-02-18 15:49 | 47.17599 | 79.33587 | 35173 ft | 546 kts | 95° |
| 2026-02-18 15:49 | 47.16773 | 79.44688 | 35173 ft | 546 kts | 95° |
| 2026-02-18 15:50 | 47.15938 | 79.55803 | 35173 ft | 546 kts | 95° |
| 2026-02-18 15:50 | 47.15100 | 79.66832 | 35177 ft | 546 kts | 95° |
| 2026-02-18 15:51 | 47.14247 | 79.77922 | 35172 ft | 546 kts | 95° |
| 2026-02-18 15:51 | 47.13383 | 79.89042 | 35172 ft | 545 kts | 95° |
| 2026-02-18 15:52 | 47.12534 | 80.00096 | 35168 ft | 545 kts | 95° |
| 2026-02-18 15:52 | 47.11688 | 80.11079 | 35176 ft | 544 kts | 95° |
| 2026-02-18 15:53 | 47.10388 | 80.27639 | 35172 ft | 543 kts | 95° |
| 2026-02-18 15:54 | 47.09508 | 80.38652 | 35173 ft | 544 kts | 95° |
| 2026-02-18 15:54 | 47.08615 | 80.49678 | 35173 ft | 544 kts | 95° |
| 2026-02-18 15:55 | 47.07712 | 80.60708 | 35176 ft | 543 kts | 95° |
| 2026-02-18 15:55 | 47.06807 | 80.71630 | 35179 ft | 543 kts | 95° |
| 2026-02-18 15:56 | 47.05885 | 80.82626 | 35179 ft | 543 kts | 95° |
| 2026-02-18 15:56 | 47.04951 | 80.93625 | 35191 ft | 543 kts | 95° |
| 2026-02-18 15:57 | 47.03538 | 81.10097 | 35183 ft | 542 kts | 95° |
| 2026-02-18 15:57 | 47.02580 | 81.21044 | 35197 ft | 541 kts | 95° |
| 2026-02-18 15:58 | 47.01613 | 81.31977 | 35203 ft | 540 kts | 95° |
| 2026-02-18 15:58 | 47.00643 | 81.42839 | 35203 ft | 540 kts | 95° |
| 2026-02-18 15:59 | 46.99658 | 81.53758 | 35206 ft | 541 kts | 96° |
| 2026-02-18 15:59 | 46.98661 | 81.64699 | 35207 ft | 541 kts | 96° |
| 2026-02-18 16:00 | 46.97654 | 81.75618 | 35211 ft | 541 kts | 96° |
| 2026-02-18 16:00 | 46.96638 | 81.86522 | 35211 ft | 540 kts | 96° |
| 2026-02-18 16:01 | 46.95103 | 82.02792 | 35202 ft | 540 kts | 96° |
| 2026-02-18 16:02 | 46.94051 | 82.13669 | 35202 ft | 540 kts | 96° |
| 2026-02-18 16:02 | 46.92987 | 82.24543 | 35205 ft | 540 kts | 96° |
| 2026-02-18 16:03 | 46.91918 | 82.35396 | 35194 ft | 539 kts | 96° |
| 2026-02-18 16:03 | 46.90840 | 82.46245 | 35195 ft | 538 kts | 96° |
| 2026-02-18 16:04 | 46.89753 | 82.57081 | 35211 ft | 539 kts | 96° |
| 2026-02-18 16:04 | 46.88654 | 82.67916 | 35216 ft | 538 kts | 96° |
| 2026-02-18 16:05 | 46.86802 | 82.84072 | 35215 ft | 538 kts | 104° |
| 2026-02-18 16:05 | 46.84095 | 82.94226 | 35216 ft | 537 kts | 120° |
| 2026-02-18 16:06 | 46.80309 | 83.03559 | 35217 ft | 537 kts | 123° |
| 2026-02-18 16:06 | 46.76307 | 83.12773 | 35222 ft | 537 kts | 123° |
| 2026-02-18 16:07 | 46.72290 | 83.21963 | 35218 ft | 536 kts | 123° |
| 2026-02-18 16:07 | 46.68296 | 83.31150 | 35227 ft | 536 kts | 123° |
| 2026-02-18 16:08 | 46.64285 | 83.40304 | 35219 ft | 536 kts | 125° |
| 2026-02-18 16:08 | 46.59943 | 83.49029 | 35227 ft | 535 kts | 128° |
| 2026-02-18 16:09 | 46.53236 | 83.61992 | 35227 ft | 534 kts | 128° |
| 2026-02-18 16:10 | 46.48816 | 83.70672 | 35227 ft | 534 kts | 127° |
| 2026-02-18 16:10 | 46.44414 | 83.79363 | 35220 ft | 534 kts | 127° |
| 2026-02-18 16:11 | 46.40015 | 83.88031 | 35206 ft | 534 kts | 127° |
| 2026-02-18 16:11 | 46.35608 | 83.96685 | 35216 ft | 533 kts | 127° |
| 2026-02-18 16:12 | 46.31196 | 84.05311 | 35216 ft | 533 kts | 127° |
| 2026-02-18 16:12 | 46.26780 | 84.13922 | 35233 ft | 533 kts | 127° |
| 2026-02-18 16:13 | 46.20149 | 84.26753 | 35279 ft | 532 kts | 127° |
| 2026-02-18 16:13 | 46.15700 | 84.35297 | 35315 ft | 531 kts | 127° |
| 2026-02-18 16:14 | 46.11262 | 84.43801 | 35381 ft | 531 kts | 127° |
| 2026-02-18 16:14 | 46.06827 | 84.52279 | 35372 ft | 529 kts | 127° |
| 2026-02-18 16:15 | 46.02391 | 84.60734 | 35385 ft | 528 kts | 127° |
| 2026-02-18 16:15 | 45.97963 | 84.69149 | 35405 ft | 526 kts | 127° |
| 2026-02-18 16:16 | 45.93565 | 84.77482 | 35405 ft | 526 kts | 127° |
| 2026-02-18 16:16 | 45.89137 | 84.85846 | 35411 ft | 526 kts | 127° |
| 2026-02-18 16:17 | 45.82482 | 84.98373 | 35409 ft | 524 kts | 127° |
| 2026-02-18 16:18 | 45.78059 | 85.06666 | 35411 ft | 523 kts | 127° |
| 2026-02-18 16:18 | 45.73625 | 85.14956 | 35409 ft | 524 kts | 127° |
| 2026-02-18 16:19 | 45.69191 | 85.23224 | 35409 ft | 524 kts | 127° |
| 2026-02-18 16:19 | 45.64771 | 85.31495 | 35416 ft | 523 kts | 126° |
| 2026-02-18 16:20 | 45.60394 | 85.39689 | 35405 ft | 521 kts | 126° |
| 2026-02-18 16:20 | 45.55977 | 85.47928 | 35400 ft | 521 kts | 127° |
| 2026-02-18 16:21 | 45.49345 | 85.60246 | 35383 ft | 521 kts | 127° |
| 2026-02-18 16:21 | 45.44954 | 85.68369 | 35390 ft | 519 kts | 127° |
| 2026-02-18 16:22 | 45.40545 | 85.76503 | 35389 ft | 519 kts | 127° |
| 2026-02-18 16:22 | 45.36122 | 85.84639 | 35380 ft | 519 kts | 127° |
| 2026-02-18 16:23 | 45.31703 | 85.92747 | 35380 ft | 519 kts | 127° |
| 2026-02-18 16:23 | 45.27281 | 86.00833 | 35373 ft | 516 kts | 127° |
| 2026-02-18 16:24 | 45.22873 | 86.08873 | 35372 ft | 515 kts | 127° |
| 2026-02-18 16:24 | 45.18488 | 86.16851 | 35377 ft | 516 kts | 127° |
| 2026-02-18 16:25 | 45.11859 | 86.28865 | 35367 ft | 516 kts | 127° |
| 2026-02-18 16:26 | 45.07430 | 86.36864 | 35361 ft | 516 kts | 127° |
| 2026-02-18 16:26 | 45.02998 | 86.44845 | 35362 ft | 516 kts | 127° |
| 2026-02-18 16:27 | 44.98557 | 86.52822 | 35359 ft | 516 kts | 127° |
| 2026-02-18 16:27 | 44.94109 | 86.60788 | 35353 ft | 516 kts | 127° |
| 2026-02-18 16:28 | 44.89691 | 86.68679 | 35353 ft | 516 kts | 127° |
| 2026-02-18 16:28 | 44.85231 | 86.76623 | 35355 ft | 516 kts | 127° |
| 2026-02-18 16:29 | 44.78528 | 86.88427 | 35352 ft | 516 kts | 128° |
| 2026-02-18 16:29 | 44.73988 | 86.96253 | 35365 ft | 515 kts | 128° |
| 2026-02-18 16:30 | 44.69462 | 87.04063 | 35349 ft | 515 kts | 128° |
| 2026-02-18 16:30 | 44.65675 | 87.10616 | 35349 ft | 516 kts | 128° |
| 2026-02-18 16:31 | 44.61177 | 87.18386 | 35349 ft | 516 kts | 128° |
| 2026-02-18 16:31 | 44.56649 | 87.26188 | 35341 ft | 515 kts | 127° |
| 2026-02-18 16:32 | 44.52175 | 87.34023 | 35358 ft | 513 kts | 126° |
| 2026-02-18 16:32 | 44.47858 | 87.42002 | 35345 ft | 514 kts | 125° |
| 2026-02-18 16:33 | 44.41407 | 87.53927 | 35341 ft | 514 kts | 125° |
| 2026-02-18 16:34 | 44.37062 | 87.61857 | 35340 ft | 513 kts | 125° |
| 2026-02-18 16:34 | 44.32716 | 87.69748 | 35335 ft | 512 kts | 125° |
| 2026-02-18 16:35 | 44.28448 | 87.77649 | 35333 ft | 510 kts | 124° |
| 2026-02-18 16:35 | 44.24207 | 87.85571 | 35322 ft | 510 kts | 124° |
| 2026-02-18 16:36 | 44.20550 | 87.93942 | 35276 ft | 502 kts | 109° |
| 2026-02-18 16:36 | 44.18881 | 88.03226 | 35269 ft | 488 kts | 89° |
| 2026-02-18 16:37 | 44.20017 | 88.17019 | 35260 ft | 475 kts | 73° |
| 2026-02-18 16:37 | 44.21406 | 88.26032 | 35306 ft | 475 kts | 72° |
| 2026-02-18 16:38 | 44.22801 | 88.35055 | 35295 ft | 477 kts | 72° |
| 2026-02-18 16:38 | 44.24146 | 88.44063 | 35293 ft | 477 kts | 73° |
| 2026-02-18 16:39 | 44.25473 | 88.53147 | 35309 ft | 478 kts | 73° |
| 2026-02-18 16:39 | 44.26792 | 88.62246 | 35308 ft | 478 kts | 73° |
| 2026-02-18 16:40 | 44.28106 | 88.71362 | 35325 ft | 478 kts | 73° |
| 2026-02-18 16:40 | 44.29405 | 88.80413 | 35341 ft | 478 kts | 73° |
| 2026-02-18 16:41 | 44.31350 | 88.94073 | 35362 ft | 477 kts | 73° |
| 2026-02-18 16:42 | 44.32636 | 89.03172 | 35361 ft | 476 kts | 73° |
| 2026-02-18 16:42 | 44.33907 | 89.12207 | 35371 ft | 477 kts | 73° |
| 2026-02-18 16:43 | 44.35178 | 89.21303 | 35372 ft | 477 kts | 73° |
| 2026-02-18 16:43 | 44.36440 | 89.30395 | 35376 ft | 476 kts | 73° |
| 2026-02-18 16:44 | 44.37690 | 89.39462 | 35378 ft | 475 kts | 73° |
| 2026-02-18 16:44 | 44.38937 | 89.48550 | 35373 ft | 475 kts | 73° |
| 2026-02-18 16:45 | 44.40726 | 89.62208 | 35376 ft | 479 kts | 77° |
| 2026-02-18 16:45 | 44.40802 | 89.71602 | 35379 ft | 490 kts | 91° |
| 2026-02-18 16:46 | 44.39312 | 89.80991 | 35380 ft | 497 kts | 101° |
| 2026-02-18 16:46 | 44.37325 | 89.90210 | 35378 ft | 499 kts | 102° |
| 2026-02-18 16:47 | 44.35250 | 89.99473 | 35393 ft | 499 kts | 102° |
| 2026-02-18 16:47 | 44.33194 | 90.08737 | 35375 ft | 499 kts | 102° |
| 2026-02-18 16:48 | 44.31151 | 90.18010 | 35371 ft | 499 kts | 102° |
| 2026-02-18 16:48 | 44.29109 | 90.27276 | 35367 ft | 499 kts | 102° |
| 2026-02-18 16:49 | 44.26027 | 90.41175 | 35366 ft | 500 kts | 102° |
| 2026-02-18 16:50 | 44.23977 | 90.50360 | 35340 ft | 498 kts | 102° |
| 2026-02-18 16:50 | 44.21908 | 90.59594 | 35326 ft | 498 kts | 102° |
| 2026-02-18 16:51 | 44.19839 | 90.68787 | 35314 ft | 496 kts | 102° |
| 2026-02-18 16:51 | 44.17767 | 90.77957 | 35326 ft | 496 kts | 102° |
| 2026-02-18 16:52 | 44.15692 | 90.87102 | 35306 ft | 495 kts | 102° |
| 2026-02-18 16:52 | 44.13611 | 90.96237 | 35291 ft | 495 kts | 102° |
| 2026-02-18 16:53 | 44.10493 | 91.09877 | 35297 ft | 495 kts | 102° |
| 2026-02-18 16:53 | 44.08394 | 91.18995 | 35302 ft | 496 kts | 102° |
| 2026-02-18 16:54 | 44.05212 | 91.32745 | 35306 ft | 498 kts | 102° |
| 2026-02-18 16:55 | 44.03079 | 91.41920 | 35317 ft | 498 kts | 102° |
| 2026-02-18 16:55 | 44.00935 | 91.51078 | 35315 ft | 499 kts | 103° |
| 2026-02-18 16:56 | 43.98771 | 91.60194 | 35317 ft | 501 kts | 103° |
| 2026-02-18 16:56 | 43.96579 | 91.69393 | 35324 ft | 502 kts | 103° |
| 2026-02-18 16:57 | 43.92176 | 91.87793 | 35316 ft | 502 kts | 103° |
| 2026-02-18 16:58 | 43.89964 | 91.96990 | 35318 ft | 503 kts | 103° |
| 2026-02-18 16:58 | 43.87740 | 92.06198 | 35319 ft | 504 kts | 103° |
| 2026-02-18 16:59 | 43.85519 | 92.15355 | 35306 ft | 504 kts | 103° |
| 2026-02-18 16:59 | 43.83277 | 92.24561 | 35312 ft | 504 kts | 103° |
| 2026-02-18 17:00 | 43.79896 | 92.38373 | 35306 ft | 504 kts | 104° |
| 2026-02-18 17:00 | 43.77640 | 92.47540 | 35305 ft | 502 kts | 104° |
| 2026-02-18 17:01 | 43.74258 | 92.61217 | 35295 ft | 502 kts | 104° |
| 2026-02-18 17:02 | 43.71989 | 92.70350 | 35298 ft | 502 kts | 104° |
| 2026-02-18 17:02 | 43.69716 | 92.79462 | 35300 ft | 500 kts | 104° |
| 2026-02-18 17:03 | 43.67439 | 92.88554 | 35298 ft | 500 kts | 104° |
| 2026-02-18 17:03 | 43.65157 | 92.97635 | 35289 ft | 500 kts | 105° |
| 2026-02-18 17:04 | 43.62926 | 93.06727 | 35319 ft | 500 kts | 103° |
| 2026-02-18 17:04 | 43.60785 | 93.15767 | 35304 ft | 498 kts | 103° |
| 2026-02-18 17:05 | 43.57536 | 93.29390 | 35302 ft | 497 kts | 103° |
| 2026-02-18 17:05 | 43.55354 | 93.38426 | 35311 ft | 495 kts | 104° |
| 2026-02-18 17:06 | 43.53171 | 93.47424 | 35336 ft | 495 kts | 104° |
| 2026-02-18 17:06 | 43.50989 | 93.56382 | 35339 ft | 495 kts | 104° |
| 2026-02-18 17:07 | 43.48788 | 93.65382 | 35338 ft | 495 kts | 104° |
| 2026-02-18 17:07 | 43.46580 | 93.74379 | 35340 ft | 495 kts | 104° |
| 2026-02-18 17:08 | 43.44366 | 93.83359 | 35358 ft | 496 kts | 104° |
| 2026-02-18 17:08 | 43.42144 | 93.92342 | 35353 ft | 496 kts | 104° |
| 2026-02-18 17:09 | 43.38800 | 94.05798 | 35325 ft | 496 kts | 104° |
| 2026-02-18 17:10 | 43.36572 | 94.14711 | 35288 ft | 496 kts | 104° |
| 2026-02-18 17:10 | 43.34319 | 94.23692 | 35291 ft | 497 kts | 104° |
| 2026-02-18 17:11 | 43.32056 | 94.32685 | 35250 ft | 498 kts | 104° |
| 2026-02-18 17:11 | 43.29785 | 94.41673 | 35246 ft | 498 kts | 104° |
| 2026-02-18 17:12 | 43.27504 | 94.50659 | 35226 ft | 498 kts | 104° |
| 2026-02-18 17:12 | 43.25220 | 94.59630 | 35232 ft | 498 kts | 104° |
| 2026-02-18 17:13 | 43.21800 | 94.72987 | 35243 ft | 494 kts | 104° |
| 2026-02-18 17:13 | 43.19514 | 94.81880 | 35244 ft | 495 kts | 104° |
| 2026-02-18 17:14 | 43.17220 | 94.90774 | 35276 ft | 495 kts | 105° |
| 2026-02-18 17:14 | 43.14793 | 94.99609 | 35278 ft | 498 kts | 110° |
| 2026-02-18 17:15 | 43.11215 | 95.07787 | 35311 ft | 506 kts | 125° |
| 2026-02-18 17:15 | 43.06197 | 95.14590 | 35315 ft | 511 kts | 141° |
| 2026-02-18 17:16 | 43.00420 | 95.20182 | 35341 ft | 512 kts | 144° |
| 2026-02-18 17:16 | 42.94488 | 95.25600 | 35341 ft | 513 kts | 145° |
| 2026-02-18 17:17 | 42.85604 | 95.33740 | 35384 ft | 513 kts | 144° |
| 2026-02-18 17:18 | 42.79691 | 95.39199 | 35373 ft | 514 kts | 144° |
| 2026-02-18 17:18 | 42.74760 | 95.43751 | 35373 ft | 514 kts | 144° |
| 2026-02-18 17:19 | 42.67874 | 95.50092 | 35388 ft | 514 kts | 144° |
| 2026-02-18 17:19 | 42.62909 | 95.54652 | 35398 ft | 514 kts | 144° |
| 2026-02-18 17:20 | 42.56981 | 95.60084 | 35395 ft | 514 kts | 144° |
| 2026-02-18 17:20 | 42.51089 | 95.65469 | 35392 ft | 513 kts | 144° |
| 2026-02-18 17:21 | 42.43102 | 95.74897 | 35400 ft | 504 kts | 123° |
| 2026-02-18 17:21 | 42.39761 | 95.83062 | 35387 ft | 491 kts | 104° |
| 2026-02-18 17:22 | 42.38400 | 95.91962 | 35388 ft | 479 kts | 89° |
| 2026-02-18 17:22 | 42.38076 | 96.00964 | 35381 ft | 478 kts | 86° |
| 2026-02-18 17:23 | 42.37890 | 96.09900 | 35389 ft | 478 kts | 86° |
| 2026-02-18 17:23 | 42.37674 | 96.18903 | 35369 ft | 480 kts | 86° |
| 2026-02-18 17:24 | 42.37418 | 96.27933 | 35358 ft | 480 kts | 86° |
| 2026-02-18 17:24 | 42.37141 | 96.36964 | 35359 ft | 480 kts | 87° |
| 2026-02-18 17:25 | 42.36712 | 96.50514 | 35356 ft | 481 kts | 87° |
| 2026-02-18 17:26 | 42.36419 | 96.59554 | 35346 ft | 481 kts | 87° |
| 2026-02-18 17:26 | 42.36119 | 96.68602 | 35345 ft | 481 kts | 87° |
| 2026-02-18 17:27 | 42.35814 | 96.77576 | 35344 ft | 481 kts | 87° |
| 2026-02-18 17:27 | 42.35500 | 96.86618 | 35364 ft | 481 kts | 87° |
| 2026-02-18 17:28 | 42.35179 | 96.95666 | 35346 ft | 481 kts | 87° |
| 2026-02-18 17:28 | 42.34851 | 97.04699 | 35354 ft | 481 kts | 87° |
| 2026-02-18 17:29 | 42.34345 | 97.18260 | 35364 ft | 481 kts | 87° |
| 2026-02-18 17:29 | 42.34001 | 97.27250 | 35362 ft | 482 kts | 87° |
| 2026-02-18 17:30 | 42.33647 | 97.36292 | 35375 ft | 482 kts | 88° |
| 2026-02-18 17:30 | 42.33286 | 97.45336 | 35372 ft | 482 kts | 88° |
| 2026-02-18 17:31 | 42.32919 | 97.54378 | 35376 ft | 482 kts | 88° |
| 2026-02-18 17:31 | 42.32544 | 97.63432 | 35398 ft | 483 kts | 88° |
| 2026-02-18 17:32 | 42.32162 | 97.72506 | 35383 ft | 484 kts | 88° |
| 2026-02-18 17:32 | 42.31770 | 97.81591 | 35400 ft | 485 kts | 88° |
| 2026-02-18 17:33 | 42.31171 | 97.95185 | 35413 ft | 485 kts | 88° |
| 2026-02-18 17:34 | 42.30761 | 98.04284 | 35410 ft | 484 kts | 88° |
| 2026-02-18 17:34 | 42.30346 | 98.13366 | 35410 ft | 484 kts | 88° |
| 2026-02-18 17:35 | 42.29922 | 98.22449 | 35402 ft | 484 kts | 88° |
| 2026-02-18 17:35 | 42.29491 | 98.31528 | 35404 ft | 484 kts | 88° |
| 2026-02-18 17:36 | 42.29041 | 98.40608 | 35394 ft | 485 kts | 88° |
| 2026-02-18 17:36 | 42.28570 | 98.49655 | 35391 ft | 486 kts | 88° |
| 2026-02-18 17:37 | 42.27848 | 98.63315 | 35390 ft | 486 kts | 88° |
| 2026-02-18 17:37 | 42.27361 | 98.72418 | 35399 ft | 486 kts | 89° |
| 2026-02-18 17:38 | 42.26867 | 98.81512 | 35377 ft | 485 kts | 89° |
| 2026-02-18 17:38 | 42.26367 | 98.90600 | 35377 ft | 484 kts | 89° |
| 2026-02-18 17:39 | 42.25860 | 98.99674 | 35374 ft | 485 kts | 89° |
| 2026-02-18 17:39 | 42.25350 | 99.08689 | 35376 ft | 485 kts | 89° |
| 2026-02-18 17:40 | 42.24828 | 99.17773 | 35370 ft | 484 kts | 89° |
| 2026-02-18 17:40 | 42.24299 | 99.26842 | 35374 ft | 484 kts | 89° |
| 2026-02-18 17:41 | 42.23497 | 99.40383 | 35358 ft | 484 kts | 89° |
| 2026-02-18 17:42 | 42.22951 | 99.49441 | 35368 ft | 484 kts | 89° |
| 2026-02-18 17:42 | 42.22399 | 99.58507 | 35360 ft | 484 kts | 89° |
| 2026-02-18 17:43 | 42.21838 | 99.67574 | 35361 ft | 484 kts | 89° |
| 2026-02-18 17:43 | 42.21271 | 99.76630 | 35360 ft | 484 kts | 89° |
| 2026-02-18 17:44 | 42.20697 | 99.85687 | 35372 ft | 485 kts | 89° |
| 2026-02-18 17:44 | 42.20118 | 99.94719 | 35360 ft | 487 kts | 89° |
| 2026-02-18 17:45 | 42.19226 | 100.08392 | 35359 ft | 488 kts | 90° |
| 2026-02-18 17:45 | 42.18621 | 100.17510 | 35363 ft | 488 kts | 90° |
| 2026-02-18 17:46 | 42.18010 | 100.26630 | 35360 ft | 488 kts | 90° |
| 2026-02-18 17:46 | 42.17395 | 100.35689 | 35368 ft | 488 kts | 90° |
| 2026-02-18 17:47 | 42.16769 | 100.44810 | 35367 ft | 488 kts | 90° |
| 2026-02-18 17:47 | 42.16135 | 100.53929 | 35367 ft | 488 kts | 90° |
| 2026-02-18 17:48 | 42.15495 | 100.63035 | 35369 ft | 487 kts | 91° |
| 2026-02-18 17:48 | 42.14849 | 100.72124 | 35370 ft | 486 kts | 91° |
| 2026-02-18 17:49 | 42.13869 | 100.85729 | 35368 ft | 486 kts | 91° |
| 2026-02-18 17:50 | 42.13207 | 100.94799 | 35371 ft | 486 kts | 91° |
| 2026-02-18 17:50 | 42.12314 | 101.03793 | 35376 ft | 490 kts | 98° |
| 2026-02-18 17:51 | 42.10368 | 101.12639 | 35374 ft | 494 kts | 105° |
| 2026-02-18 17:51 | 42.08102 | 101.21382 | 35373 ft | 494 kts | 106° |
| 2026-02-18 17:52 | 42.05776 | 101.30106 | 35385 ft | 494 kts | 106° |
| 2026-02-18 17:52 | 42.03457 | 101.38844 | 35374 ft | 496 kts | 107° |
| 2026-02-18 17:53 | 41.99989 | 101.51926 | 35379 ft | 497 kts | 107° |
| 2026-02-18 17:53 | 41.97661 | 101.60678 | 35384 ft | 497 kts | 107° |
| 2026-02-18 17:54 | 41.95329 | 101.69417 | 35397 ft | 497 kts | 108° |
| 2026-02-18 17:54 | 41.92987 | 101.78172 | 35390 ft | 499 kts | 108° |
| 2026-02-18 17:55 | 41.90627 | 101.86946 | 35390 ft | 499 kts | 108° |
| 2026-02-18 17:55 | 41.88262 | 101.95711 | 35390 ft | 499 kts | 108° |
| 2026-02-18 17:56 | 41.85890 | 102.04470 | 35400 ft | 499 kts | 108° |
| 2026-02-18 17:56 | 41.83512 | 102.13224 | 35390 ft | 500 kts | 109° |
| 2026-02-18 17:57 | 41.79926 | 102.26363 | 35389 ft | 500 kts | 109° |
| 2026-02-18 17:58 | 41.77542 | 102.35060 | 35388 ft | 500 kts | 109° |
| 2026-02-18 17:58 | 41.75138 | 102.43802 | 35389 ft | 500 kts | 109° |
| 2026-02-18 17:59 | 41.72732 | 102.52517 | 35389 ft | 498 kts | 109° |
| 2026-02-18 17:59 | 41.70324 | 102.61210 | 35387 ft | 498 kts | 109° |
| 2026-02-18 18:00 | 41.67911 | 102.69895 | 35388 ft | 498 kts | 109° |
| 2026-02-18 18:00 | 41.65492 | 102.78593 | 35402 ft | 498 kts | 109° |
| 2026-02-18 18:01 | 41.61855 | 102.91570 | 35380 ft | 499 kts | 109° |
| 2026-02-18 18:01 | 41.59412 | 103.00258 | 35379 ft | 499 kts | 109° |
| 2026-02-18 18:02 | 41.56967 | 103.08934 | 35381 ft | 499 kts | 109° |
| 2026-02-18 18:02 | 41.54507 | 103.17603 | 35388 ft | 499 kts | 109° |
| 2026-02-18 18:03 | 41.52038 | 103.26281 | 35379 ft | 499 kts | 109° |
| 2026-02-18 18:03 | 41.49565 | 103.34954 | 35371 ft | 499 kts | 109° |
| 2026-02-18 18:04 | 41.47104 | 103.43553 | 35367 ft | 499 kts | 109° |
| 2026-02-18 18:04 | 41.44616 | 103.52219 | 35373 ft | 499 kts | 109° |
| 2026-02-18 18:05 | 41.41301 | 103.63718 | 35366 ft | 498 kts | 109° |
| 2026-02-18 18:06 | 41.38403 | 103.73730 | 35363 ft | 498 kts | 109° |
| 2026-02-18 18:06 | 41.36308 | 103.80945 | 35359 ft | 498 kts | 109° |
| 2026-02-18 18:07 | 41.33819 | 103.89487 | 35363 ft | 497 kts | 109° |
| 2026-02-18 18:07 | 41.31314 | 103.98058 | 35359 ft | 495 kts | 109° |
| 2026-02-18 18:08 | 41.28805 | 104.06614 | 35358 ft | 495 kts | 109° |
| 2026-02-18 18:08 | 41.26294 | 104.15147 | 35361 ft | 495 kts | 109° |
| 2026-02-18 18:09 | 41.22520 | 104.27921 | 35351 ft | 495 kts | 110° |
| 2026-02-18 18:09 | 41.20009 | 104.36388 | 35368 ft | 495 kts | 110° |
| 2026-02-18 18:10 | 41.17476 | 104.44897 | 35358 ft | 495 kts | 110° |
| 2026-02-18 18:10 | 41.14935 | 104.53410 | 35350 ft | 496 kts | 110° |
| 2026-02-18 18:11 | 41.12390 | 104.61905 | 35361 ft | 496 kts | 110° |
| 2026-02-18 18:11 | 41.09839 | 104.70396 | 35367 ft | 496 kts | 110° |
| 2026-02-18 18:12 | 41.07127 | 104.78805 | 35365 ft | 496 kts | 112° |
| 2026-02-18 18:12 | 41.04250 | 104.87139 | 35375 ft | 496 kts | 113° |
| 2026-02-18 18:13 | 40.99962 | 104.99620 | 35366 ft | 496 kts | 112° |
| 2026-02-18 18:14 | 40.97128 | 105.07945 | 35386 ft | 495 kts | 112° |
| 2026-02-18 18:14 | 40.94301 | 105.16248 | 35385 ft | 495 kts | 112° |
| 2026-02-18 18:15 | 40.91486 | 105.24488 | 35417 ft | 495 kts | 112° |
| 2026-02-18 18:15 | 40.88636 | 105.32799 | 35423 ft | 495 kts | 112° |
| 2026-02-18 18:16 | 40.85795 | 105.41060 | 35422 ft | 493 kts | 112° |
| 2026-02-18 18:16 | 40.82946 | 105.49320 | 35426 ft | 493 kts | 112° |
| 2026-02-18 18:17 | 40.78686 | 105.61624 | 35429 ft | 493 kts | 112° |
| 2026-02-18 18:18 | 40.74396 | 105.73965 | 35429 ft | 492 kts | 112° |
| 2026-02-18 18:18 | 40.71536 | 105.82160 | 35425 ft | 492 kts | 112° |
| 2026-02-18 18:19 | 40.68669 | 105.90351 | 35421 ft | 492 kts | 113° |
| 2026-02-18 18:19 | 40.65814 | 105.98488 | 35414 ft | 492 kts | 113° |
| 2026-02-18 18:20 | 40.62938 | 106.06659 | 35399 ft | 491 kts | 113° |
| 2026-02-18 18:20 | 40.60056 | 106.14823 | 35403 ft | 491 kts | 113° |
| 2026-02-18 18:21 | 40.55721 | 106.27058 | 35394 ft | 491 kts | 113° |
| 2026-02-18 18:21 | 40.52825 | 106.35206 | 35414 ft | 491 kts | 113° |
| 2026-02-18 18:22 | 40.49928 | 106.43331 | 35399 ft | 490 kts | 113° |
| 2026-02-18 18:22 | 40.47055 | 106.51368 | 35400 ft | 489 kts | 113° |
| 2026-02-18 18:23 | 40.44160 | 106.59443 | 35404 ft | 489 kts | 113° |
| 2026-02-18 18:23 | 40.41257 | 106.67519 | 35402 ft | 489 kts | 114° |
| 2026-02-18 18:24 | 40.38349 | 106.75586 | 35404 ft | 488 kts | 114° |
| 2026-02-18 18:24 | 40.35440 | 106.83632 | 35402 ft | 488 kts | 114° |
| 2026-02-18 18:25 | 40.33000 | 106.91902 | 35393 ft | 485 kts | 103° |
| 2026-02-18 18:25 | 40.32282 | 106.96208 | 35395 ft | 483 kts | 96° |
| 2026-02-18 18:26 | 40.32011 | 107.04940 | 35394 ft | 478 kts | 82° |
| 2026-02-18 18:26 | 40.32903 | 107.13561 | 35383 ft | 477 kts | 78° |
| 2026-02-18 18:27 | 40.33999 | 107.22122 | 35372 ft | 476 kts | 78° |
| 2026-02-18 18:27 | 40.35092 | 107.30645 | 35373 ft | 477 kts | 78° |
| 2026-02-18 18:28 | 40.36156 | 107.39219 | 35368 ft | 477 kts | 78° |
| 2026-02-18 18:28 | 40.37202 | 107.47821 | 35368 ft | 476 kts | 78° |
| 2026-02-18 18:29 | 40.38752 | 107.60695 | 35374 ft | 476 kts | 78° |
| 2026-02-18 18:29 | 40.39780 | 107.69287 | 35371 ft | 476 kts | 79° |
| 2026-02-18 18:30 | 40.40794 | 107.77823 | 35376 ft | 475 kts | 79° |
| 2026-02-18 18:30 | 40.41805 | 107.86388 | 35374 ft | 475 kts | 79° |
| 2026-02-18 18:31 | 40.42811 | 107.94958 | 35378 ft | 475 kts | 79° |
| 2026-02-18 18:31 | 40.43813 | 108.03525 | 35378 ft | 475 kts | 79° |
| 2026-02-18 18:32 | 40.44801 | 108.12103 | 35379 ft | 475 kts | 79° |
| 2026-02-18 18:32 | 40.45782 | 108.20676 | 35388 ft | 475 kts | 79° |
| 2026-02-18 18:33 | 40.47244 | 108.33551 | 35381 ft | 475 kts | 79° |
| 2026-02-18 18:34 | 40.48205 | 108.42070 | 35381 ft | 475 kts | 79° |
| 2026-02-18 18:34 | 40.49166 | 108.50653 | 35387 ft | 474 kts | 79° |
| 2026-02-18 18:35 | 40.50120 | 108.59237 | 35389 ft | 473 kts | 79° |
| 2026-02-18 18:35 | 40.51065 | 108.67793 | 35390 ft | 473 kts | 79° |
| 2026-02-18 18:36 | 40.52004 | 108.76356 | 35392 ft | 473 kts | 80° |
| 2026-02-18 18:36 | 40.52932 | 108.84871 | 35388 ft | 473 kts | 80° |
| 2026-02-18 18:37 | 40.54316 | 108.97697 | 35384 ft | 472 kts | 80° |
| 2026-02-18 18:37 | 40.55232 | 109.06260 | 35381 ft | 472 kts | 80° |
| 2026-02-18 18:38 | 40.56142 | 109.14823 | 35377 ft | 473 kts | 80° |
| 2026-02-18 18:39 | 40.57492 | 109.27657 | 35358 ft | 472 kts | 80° |
| 2026-02-18 18:39 | 40.58378 | 109.36147 | 35357 ft | 472 kts | 80° |
| 2026-02-18 18:40 | 40.59264 | 109.44706 | 35357 ft | 472 kts | 80° |
| 2026-02-18 18:40 | 40.60143 | 109.53260 | 35354 ft | 471 kts | 80° |
| 2026-02-18 18:41 | 40.61448 | 109.66077 | 35354 ft | 471 kts | 80° |
| 2026-02-18 18:41 | 40.62305 | 109.74575 | 35354 ft | 471 kts | 80° |
| 2026-02-18 18:42 | 40.63161 | 109.83124 | 35349 ft | 471 kts | 81° |
| 2026-02-18 18:42 | 40.64009 | 109.91664 | 35346 ft | 470 kts | 81° |
| 2026-02-18 18:43 | 40.64600 | 110.00261 | 35334 ft | 472 kts | 87° |
| 2026-02-18 18:43 | 40.64653 | 110.08924 | 35317 ft | 473 kts | 88° |
| 2026-02-18 18:44 | 40.64605 | 110.17591 | 35315 ft | 473 kts | 89° |
| 2026-02-18 18:44 | 40.64539 | 110.26251 | 35295 ft | 472 kts | 89° |
| 2026-02-18 18:45 | 40.64444 | 110.39176 | 35282 ft | 472 kts | 89° |
| 2026-02-18 18:46 | 40.64379 | 110.47835 | 35278 ft | 472 kts | 89° |
| 2026-02-18 18:46 | 40.64307 | 110.56487 | 35267 ft | 472 kts | 89° |
| 2026-02-18 18:47 | 40.64231 | 110.65129 | 35255 ft | 472 kts | 89° |
| 2026-02-18 18:47 | 40.64148 | 110.73778 | 35247 ft | 472 kts | 89° |
| 2026-02-18 18:48 | 40.64058 | 110.82377 | 35250 ft | 472 kts | 89° |
| 2026-02-18 18:48 | 40.63962 | 110.91006 | 35241 ft | 471 kts | 89° |
| 2026-02-18 18:49 | 40.63806 | 111.03942 | 35241 ft | 471 kts | 89° |
| 2026-02-18 18:49 | 40.63694 | 111.12588 | 35229 ft | 471 kts | 89° |
| 2026-02-18 18:50 | 40.63578 | 111.21232 | 35231 ft | 471 kts | 89° |
| 2026-02-18 18:50 | 40.63454 | 111.29871 | 35242 ft | 471 kts | 89° |
| 2026-02-18 18:51 | 40.63321 | 111.38447 | 35240 ft | 471 kts | 89° |
| 2026-02-18 18:51 | 40.63204 | 111.45685 | 35245 ft | 471 kts | 89° |
| 2026-02-18 18:52 | 40.63061 | 111.54312 | 35247 ft | 471 kts | 89° |
| 2026-02-18 18:52 | 40.62911 | 111.62939 | 35233 ft | 471 kts | 89° |
| 2026-02-18 18:53 | 40.62676 | 111.75825 | 35232 ft | 471 kts | 89° |
| 2026-02-18 18:54 | 40.62511 | 111.84478 | 35233 ft | 471 kts | 89° |
| 2026-02-18 18:54 | 40.62343 | 111.93099 | 35230 ft | 471 kts | 89° |
| 2026-02-18 18:55 | 40.62175 | 112.01711 | 35220 ft | 471 kts | 90° |
| 2026-02-18 18:55 | 40.61986 | 112.10325 | 35216 ft | 471 kts | 90° |
| 2026-02-18 18:56 | 40.61789 | 112.18937 | 35214 ft | 470 kts | 90° |
| 2026-02-18 18:56 | 40.61588 | 112.27477 | 35205 ft | 470 kts | 90° |
| 2026-02-18 18:57 | 40.61276 | 112.40413 | 35196 ft | 471 kts | 90° |
| 2026-02-18 18:57 | 40.61062 | 112.49049 | 35197 ft | 471 kts | 90° |
| 2026-02-18 18:58 | 40.60691 | 112.57655 | 35194 ft | 471 kts | 92° |
| 2026-02-18 18:58 | 40.60144 | 112.66248 | 35192 ft | 471 kts | 93° |
| 2026-02-18 18:59 | 40.59604 | 112.74800 | 35198 ft | 471 kts | 93° |
| 2026-02-18 18:59 | 40.58891 | 112.83382 | 35199 ft | 471 kts | 94° |
| 2026-02-18 19:00 | 40.58253 | 112.91969 | 35215 ft | 471 kts | 93° |
| 2026-02-18 19:00 | 40.57695 | 113.00562 | 35236 ft | 471 kts | 93° |
| 2026-02-18 19:01 | 40.56854 | 113.13378 | 35254 ft | 471 kts | 93° |
| 2026-02-18 19:02 | 40.56271 | 113.21950 | 35250 ft | 470 kts | 93° |
| 2026-02-18 19:02 | 40.55678 | 113.30512 | 35263 ft | 470 kts | 93° |
| 2026-02-18 19:03 | 40.55080 | 113.39065 | 35262 ft | 470 kts | 93° |
| 2026-02-18 19:03 | 40.54476 | 113.47617 | 35271 ft | 470 kts | 93° |
| 2026-02-18 19:04 | 40.53869 | 113.56124 | 35268 ft | 470 kts | 93° |
| 2026-02-18 19:04 | 40.53253 | 113.64673 | 35257 ft | 470 kts | 93° |
| 2026-02-18 19:05 | 40.52316 | 113.77527 | 35276 ft | 471 kts | 94° |
| 2026-02-18 19:05 | 40.51682 | 113.86083 | 35271 ft | 470 kts | 94° |
| 2026-02-18 19:06 | 40.51041 | 113.94641 | 35272 ft | 470 kts | 94° |
| 2026-02-18 19:06 | 40.50431 | 114.03192 | 35291 ft | 470 kts | 92° |
| 2026-02-18 19:07 | 40.50078 | 114.11752 | 35298 ft | 469 kts | 91° |
| 2026-02-18 19:07 | 40.49779 | 114.20325 | 35304 ft | 469 kts | 91° |
| 2026-02-18 19:08 | 40.49441 | 114.28817 | 35376 ft | 468 kts | 91° |
| 2026-02-18 19:08 | 40.49068 | 114.37377 | 35521 ft | 468 kts | 91° |
| 2026-02-18 19:09 | 40.48682 | 114.45926 | 35674 ft | 469 kts | 92° |
| 2026-02-18 19:09 | 40.48487 | 114.50204 | 35751 ft | 469 kts | 92° |
| 2026-02-18 19:10 | 40.48092 | 114.58780 | 35892 ft | 470 kts | 92° |
| 2026-02-18 19:10 | 40.47693 | 114.67317 | 36041 ft | 472 kts | 92° |
| 2026-02-18 19:11 | 40.47284 | 114.75936 | 36193 ft | 473 kts | 92° |
| 2026-02-18 19:11 | 40.46867 | 114.84576 | 36328 ft | 474 kts | 92° |
| 2026-02-18 19:12 | 40.46443 | 114.93236 | 36490 ft | 476 kts | 92° |
| 2026-02-18 19:12 | 40.46011 | 115.01924 | 36643 ft | 477 kts | 92° |
| 2026-02-18 19:13 | 40.45353 | 115.14937 | 36867 ft | 479 kts | 92° |
| 2026-02-18 19:13 | 40.44901 | 115.23682 | 37020 ft | 480 kts | 92° |
| 2026-02-18 19:14 | 40.44442 | 115.32442 | 37171 ft | 481 kts | 92° |
| 2026-02-18 19:14 | 40.43976 | 115.41233 | 37247 ft | 483 kts | 92° |
| 2026-02-18 19:15 | 40.43504 | 115.49987 | 37252 ft | 484 kts | 92° |
| 2026-02-18 19:15 | 40.42970 | 115.58795 | 37244 ft | 484 kts | 94° |
| 2026-02-18 19:16 | 40.42236 | 115.67591 | 37236 ft | 485 kts | 95° |
| 2026-02-18 19:16 | 40.41475 | 115.76383 | 37236 ft | 485 kts | 95° |
| 2026-02-18 19:17 | 40.40370 | 115.89582 | 37227 ft | 485 kts | 95° |
| 2026-02-18 19:18 | 40.39640 | 115.98387 | 37228 ft | 485 kts | 95° |
| 2026-02-18 19:18 | 40.38905 | 116.07179 | 37225 ft | 484 kts | 95° |
| 2026-02-18 19:19 | 40.38167 | 116.15889 | 37221 ft | 484 kts | 95° |
| 2026-02-18 19:19 | 40.37419 | 116.24655 | 37222 ft | 484 kts | 95° |
| 2026-02-18 19:20 | 40.36662 | 116.33447 | 37215 ft | 484 kts | 95° |
| 2026-02-18 19:20 | 40.35899 | 116.42222 | 37212 ft | 484 kts | 95° |
| 2026-02-18 19:21 | 40.34742 | 116.55379 | 37210 ft | 484 kts | 95° |
| 2026-02-18 19:21 | 40.33399 | 116.64023 | 37210 ft | 486 kts | 108° |
| 2026-02-18 19:22 | 40.30438 | 116.71956 | 37210 ft | 486 kts | 125° |
| 2026-02-18 19:22 | 40.25922 | 116.78432 | 37208 ft | 485 kts | 142° |
| 2026-02-18 19:23 | 40.20172 | 116.82972 | 37209 ft | 483 kts | 159° |
| 2026-02-18 19:23 | 40.13715 | 116.85203 | 37208 ft | 479 kts | 176° |
| 2026-02-18 19:24 | 40.07099 | 116.85009 | 37203 ft | 474 kts | 192° |
| 2026-02-18 19:24 | 40.00665 | 116.83184 | 37203 ft | 474 kts | 191° |
| 2026-02-18 19:25 | 39.94100 | 116.82788 | 37204 ft | 479 kts | 177° |
| 2026-02-18 19:25 | 39.90784 | 116.83241 | 37202 ft | 480 kts | 175° |
| 2026-02-18 19:26 | 39.84170 | 116.84490 | 37203 ft | 481 kts | 173° |
| 2026-02-18 19:26 | 39.77554 | 116.85875 | 37191 ft | 480 kts | 173° |
| 2026-02-18 19:27 | 39.70968 | 116.87279 | 37204 ft | 480 kts | 173° |
| 2026-02-18 19:27 | 39.64367 | 116.88666 | 37200 ft | 480 kts | 173° |
| 2026-02-18 19:28 | 39.57809 | 116.90025 | 37198 ft | 480 kts | 173° |
| 2026-02-18 19:28 | 39.51212 | 116.91385 | 37198 ft | 480 kts | 174° |
| 2026-02-18 19:29 | 39.41307 | 116.93420 | 37197 ft | 480 kts | 174° |
| 2026-02-18 19:29 | 39.34700 | 116.94775 | 37190 ft | 480 kts | 174° |
| 2026-02-18 19:30 | 39.28093 | 116.96129 | 37200 ft | 481 kts | 174° |
| 2026-02-18 19:30 | 39.21550 | 116.98059 | 37197 ft | 486 kts | 163° |
| 2026-02-18 19:31 | 39.15560 | 117.02069 | 37200 ft | 492 kts | 146° |
| 2026-02-18 19:31 | 39.10680 | 117.08276 | 37195 ft | 498 kts | 128° |
| 2026-02-18 19:32 | 39.07445 | 117.16189 | 37199 ft | 503 kts | 109° |
| 2026-02-18 19:32 | 39.06210 | 117.25028 | 37209 ft | 504 kts | 90° |
| 2026-02-18 19:33 | 39.07052 | 117.33934 | 37214 ft | 501 kts | 77° |
| 2026-02-18 19:33 | 39.07547 | 117.38375 | 37210 ft | 501 kts | 85° |
| 2026-02-18 19:34 | 39.07744 | 117.47351 | 37210 ft | 502 kts | 89° |
| 2026-02-18 19:34 | 39.07701 | 117.56291 | 37208 ft | 503 kts | 90° |
| 2026-02-18 19:35 | 39.07579 | 117.65298 | 37205 ft | 503 kts | 90° |
| 2026-02-18 19:35 | 39.07450 | 117.74310 | 37202 ft | 503 kts | 90° |
| 2026-02-18 19:36 | 39.07325 | 117.83313 | 37200 ft | 503 kts | 90° |
| 2026-02-18 19:36 | 39.07198 | 117.92316 | 37200 ft | 503 kts | 90° |
| 2026-02-18 19:37 | 39.06585 | 118.05794 | 37198 ft | 503 kts | 99° |
| 2026-02-18 19:37 | 39.05312 | 118.14592 | 37202 ft | 504 kts | 101° |
| 2026-02-18 19:38 | 39.03906 | 118.23393 | 37202 ft | 501 kts | 102° |
| 2026-02-18 19:38 | 39.02484 | 118.32165 | 37206 ft | 501 kts | 102° |
| 2026-02-18 19:39 | 39.01068 | 118.40944 | 37203 ft | 501 kts | 102° |
| 2026-02-18 19:39 | 38.99890 | 118.48249 | 37206 ft | 502 kts | 102° |
| 2026-02-18 19:40 | 38.98475 | 118.57039 | 37203 ft | 502 kts | 102° |
| 2026-02-18 19:40 | 38.97043 | 118.65837 | 37203 ft | 502 kts | 102° |
| 2026-02-18 19:41 | 38.94882 | 118.79029 | 37209 ft | 503 kts | 102° |
| 2026-02-18 19:42 | 38.93440 | 118.87780 | 37206 ft | 503 kts | 102° |
| 2026-02-18 19:42 | 38.91986 | 118.96572 | 37201 ft | 503 kts | 102° |
| 2026-02-18 19:43 | 38.90524 | 119.05385 | 37212 ft | 505 kts | 102° |
| 2026-02-18 19:43 | 38.89051 | 119.14207 | 37211 ft | 505 kts | 102° |
| 2026-02-18 19:44 | 38.87564 | 119.23027 | 37211 ft | 505 kts | 103° |
| 2026-02-18 19:44 | 38.86072 | 119.31847 | 37211 ft | 507 kts | 103° |
| 2026-02-18 19:45 | 38.83818 | 119.45105 | 37211 ft | 507 kts | 103° |
| 2026-02-18 19:45 | 38.82317 | 119.53886 | 37301 ft | 507 kts | 103° |
| 2026-02-18 19:46 | 38.80802 | 119.62704 | 37387 ft | 507 kts | 103° |
| 2026-02-18 19:46 | 38.79276 | 119.71546 | 37509 ft | 507 kts | 103° |
| 2026-02-18 19:47 | 38.77741 | 119.80394 | 37616 ft | 508 kts | 103° |
| 2026-02-18 19:47 | 38.76226 | 119.89256 | 37714 ft | 509 kts | 103° |
| 2026-02-18 19:48 | 38.73763 | 119.97705 | 37831 ft | 506 kts | 121° |
| 2026-02-18 19:48 | 38.70204 | 120.05483 | 37940 ft | 507 kts | 124° |
| 2026-02-18 19:49 | 38.66447 | 120.13123 | 38045 ft | 507 kts | 125° |
| 2026-02-18 19:49 | 38.64553 | 120.16940 | 38101 ft | 508 kts | 125° |
| 2026-02-18 19:50 | 38.61319 | 120.24929 | 38215 ft | 513 kts | 109° |
| 2026-02-18 19:50 | 38.59533 | 120.33780 | 38330 ft | 515 kts | 103° |
| 2026-02-18 19:51 | 38.58075 | 120.42757 | 38430 ft | 516 kts | 102° |
| 2026-02-18 19:51 | 38.56650 | 120.51763 | 38539 ft | 518 kts | 102° |
| 2026-02-18 19:52 | 38.55197 | 120.60794 | 38658 ft | 519 kts | 102° |
| 2026-02-18 19:52 | 38.53747 | 120.69777 | 38776 ft | 519 kts | 102° |
| 2026-02-18 19:53 | 38.51538 | 120.83335 | 38958 ft | 519 kts | 102° |
| 2026-02-18 19:53 | 38.50059 | 120.92347 | 39053 ft | 517 kts | 102° |
| 2026-02-18 19:54 | 38.48576 | 121.01339 | 39137 ft | 518 kts | 102° |
| 2026-02-18 19:54 | 38.47083 | 121.10338 | 39220 ft | 518 kts | 102° |
| 2026-02-18 19:55 | 38.45593 | 121.19340 | 39311 ft | 518 kts | 102° |
| 2026-02-18 19:55 | 38.44134 | 121.28344 | 39335 ft | 519 kts | 102° |
| 2026-02-18 19:56 | 38.42691 | 121.37321 | 39333 ft | 520 kts | 102° |
| 2026-02-18 19:56 | 38.41229 | 121.46344 | 39335 ft | 520 kts | 102° |
| 2026-02-18 19:57 | 38.38988 | 121.59887 | 39338 ft | 520 kts | 102° |
| 2026-02-18 19:58 | 38.37468 | 121.68913 | 39347 ft | 521 kts | 103° |
| 2026-02-18 19:58 | 38.35957 | 121.77875 | 39346 ft | 521 kts | 103° |
| 2026-02-18 19:59 | 38.34430 | 121.86908 | 39348 ft | 522 kts | 103° |
| 2026-02-18 19:59 | 38.32895 | 121.95949 | 39349 ft | 522 kts | 103° |
| 2026-02-18 20:00 | 38.30575 | 122.09525 | 39362 ft | 523 kts | 103° |
| 2026-02-18 20:00 | 38.29020 | 122.18570 | 39366 ft | 523 kts | 103° |
| 2026-02-18 20:01 | 38.26782 | 122.32110 | 39375 ft | 523 kts | 101° |
| 2026-02-18 20:02 | 38.25244 | 122.41129 | 39361 ft | 520 kts | 110° |
| 2026-02-18 20:02 | 38.23823 | 122.45332 | 39362 ft | 516 kts | 121° |
| 2026-02-18 20:02 | 38.21862 | 122.49114 | 39366 ft | 511 kts | 133° |
| 2026-02-18 20:03 | 38.17086 | 122.55764 | 39370 ft | 509 kts | 139° |
| 2026-02-18 20:03 | 38.12072 | 122.62137 | 39374 ft | 510 kts | 140° |
| 2026-02-18 20:04 | 38.07034 | 122.68509 | 39377 ft | 511 kts | 139° |
| 2026-02-18 20:04 | 38.02047 | 122.74950 | 39379 ft | 512 kts | 139° |
| 2026-02-18 20:05 | 37.92099 | 122.87865 | 39382 ft | 512 kts | 139° |
| 2026-02-18 20:06 | 37.87149 | 122.94259 | 39385 ft | 512 kts | 139° |
| 2026-02-18 20:06 | 37.82145 | 123.00703 | 39383 ft | 513 kts | 139° |
| 2026-02-18 20:07 | 37.77134 | 123.07145 | 39390 ft | 514 kts | 139° |
| 2026-02-18 20:07 | 37.72114 | 123.13587 | 39387 ft | 514 kts | 139° |
| 2026-02-18 20:08 | 37.67087 | 123.20024 | 39388 ft | 514 kts | 139° |
| 2026-02-18 20:08 | 37.62062 | 123.26446 | 39394 ft | 514 kts | 139° |
| 2026-02-18 20:09 | 37.54848 | 123.36432 | 39393 ft | 518 kts | 131° |
| 2026-02-18 20:09 | 37.50463 | 123.43667 | 39391 ft | 520 kts | 130° |
| 2026-02-18 20:10 | 37.46121 | 123.50982 | 39401 ft | 521 kts | 130° |
| 2026-02-18 20:10 | 37.41774 | 123.58291 | 39402 ft | 522 kts | 130° |
| 2026-02-18 20:11 | 37.37415 | 123.65581 | 39400 ft | 521 kts | 131° |
| 2026-02-18 20:11 | 37.33046 | 123.72857 | 39404 ft | 522 kts | 131° |
| 2026-02-18 20:12 | 37.28662 | 123.80139 | 39404 ft | 522 kts | 131° |
| 2026-02-18 20:12 | 37.24299 | 123.87374 | 39404 ft | 522 kts | 131° |
| 2026-02-18 20:13 | 37.18528 | 123.98983 | 39404 ft | 529 kts | 112° |
| 2026-02-18 20:13 | 37.17486 | 124.03416 | 39412 ft | 531 kts | 101° |
| 2026-02-18 20:14 | 37.17048 | 124.08010 | 39413 ft | 531 kts | 90° |
| 2026-02-18 20:14 | 37.17187 | 124.17268 | 39412 ft | 531 kts | 85° |
| 2026-02-18 20:15 | 37.17587 | 124.26517 | 39410 ft | 532 kts | 85° |
| 2026-02-18 20:15 | 37.17904 | 124.35791 | 39410 ft | 532 kts | 86° |
| 2026-02-18 20:16 | 37.18127 | 124.45013 | 39416 ft | 532 kts | 87° |
| 2026-02-18 20:16 | 37.18328 | 124.54286 | 39412 ft | 531 kts | 87° |
| 2026-02-18 20:17 | 37.18624 | 124.68172 | 39411 ft | 531 kts | 87° |
| 2026-02-18 20:17 | 37.18820 | 124.77435 | 39418 ft | 531 kts | 87° |
| 2026-02-18 20:18 | 37.19010 | 124.86699 | 39413 ft | 531 kts | 87° |
| 2026-02-18 20:18 | 37.19192 | 124.95966 | 39416 ft | 531 kts | 87° |
| 2026-02-18 20:19 | 37.19367 | 125.05244 | 39431 ft | 532 kts | 87° |
| 2026-02-18 20:19 | 37.19533 | 125.14452 | 39417 ft | 531 kts | 87° |
| 2026-02-18 20:20 | 37.19693 | 125.23708 | 39411 ft | 531 kts | 87° |
| 2026-02-18 20:20 | 37.19846 | 125.32970 | 39418 ft | 531 kts | 87° |
| 2026-02-18 20:21 | 37.20061 | 125.46825 | 39419 ft | 532 kts | 87° |
| 2026-02-18 20:22 | 37.20196 | 125.56093 | 39420 ft | 532 kts | 88° |
| 2026-02-18 20:22 | 37.20322 | 125.65381 | 39419 ft | 531 kts | 88° |
| 2026-02-18 20:23 | 37.20440 | 125.74645 | 39420 ft | 530 kts | 88° |
| 2026-02-18 20:23 | 37.20554 | 125.83914 | 39416 ft | 531 kts | 88° |
| 2026-02-18 20:24 | 37.20661 | 125.93194 | 39430 ft | 532 kts | 88° |
| 2026-02-18 20:24 | 37.20758 | 126.02423 | 39429 ft | 532 kts | 88° |
| 2026-02-18 20:25 | 37.20892 | 126.16346 | 39431 ft | 532 kts | 88° |
| 2026-02-18 20:25 | 37.20973 | 126.25632 | 39421 ft | 532 kts | 88° |
| 2026-02-18 20:26 | 37.21047 | 126.34887 | 39330 ft | 527 kts | 88° |
| 2026-02-18 20:26 | 37.21114 | 126.44146 | 39325 ft | 532 kts | 88° |
| 2026-02-18 20:27 | 37.21168 | 126.51865 | 39318 ft | 533 kts | 88° |
| 2026-02-18 20:27 | 37.21219 | 126.61177 | 39323 ft | 534 kts | 88° |
| 2026-02-18 20:28 | 37.21261 | 126.70491 | 39324 ft | 533 kts | 88° |
| 2026-02-18 20:28 | 37.21296 | 126.79776 | 39314 ft | 532 kts | 88° |
| 2026-02-18 20:29 | 37.21675 | 126.93682 | 39314 ft | 529 kts | 77° |
| 2026-02-18 20:29 | 37.22581 | 126.98118 | 39313 ft | 523 kts | 66° |
| 2026-02-18 20:30 | 37.24076 | 127.02237 | 39311 ft | 515 kts | 54° |
| 2026-02-18 20:30 | 37.28344 | 127.09294 | 39340 ft | 505 kts | 43° |
| 2026-02-18 20:31 | 37.33015 | 127.15868 | 39330 ft | 504 kts | 41° |
| 2026-02-18 20:31 | 37.37703 | 127.22354 | 39330 ft | 504 kts | 41° |
| 2026-02-18 20:32 | 37.42389 | 127.28917 | 39333 ft | 504 kts | 42° |
| 2026-02-18 20:32 | 37.46826 | 127.35773 | 39330 ft | 511 kts | 52° |
| 2026-02-18 20:32 | 37.48515 | 127.39734 | 39326 ft | 517 kts | 63° |
| 2026-02-18 20:33 | 37.50535 | 127.48504 | 39334 ft | 524 kts | 74° |
| 2026-02-18 20:33 | 37.51989 | 127.57506 | 39328 ft | 524 kts | 76° |
| 2026-02-18 20:34 | 37.53362 | 127.66536 | 39323 ft | 524 kts | 76° |
| 2026-02-18 20:34 | 37.54750 | 127.75497 | 39321 ft | 524 kts | 76° |
| 2026-02-18 20:35 | 37.56170 | 127.84532 | 39334 ft | 525 kts | 76° |
| 2026-02-18 20:35 | 37.57586 | 127.93537 | 39318 ft | 522 kts | 76° |
| 2026-02-18 20:36 | 37.58995 | 128.02538 | 39318 ft | 524 kts | 76° |
| 2026-02-18 20:36 | 37.60399 | 128.11564 | 39315 ft | 524 kts | 76° |
| 2026-02-18 20:37 | 37.62485 | 128.25056 | 39308 ft | 523 kts | 76° |
| 2026-02-18 20:38 | 37.63866 | 128.34079 | 39299 ft | 523 kts | 76° |
| 2026-02-18 20:38 | 37.65238 | 128.43086 | 39292 ft | 523 kts | 76° |
| 2026-02-18 20:39 | 37.66606 | 128.52115 | 39283 ft | 523 kts | 76° |
| 2026-02-18 20:39 | 37.67969 | 128.61134 | 39278 ft | 521 kts | 76° |
| 2026-02-18 20:40 | 37.68945 | 128.70150 | 39252 ft | 524 kts | 88° |
| 2026-02-18 20:40 | 37.68686 | 128.74739 | 39256 ft | 526 kts | 99° |
| 2026-02-18 20:40 | 37.67782 | 128.79208 | 39250 ft | 525 kts | 111° |
| 2026-02-18 20:41 | 37.62612 | 128.91327 | 39247 ft | 524 kts | 124° |
| 2026-02-18 20:41 | 37.58768 | 128.99155 | 39244 ft | 524 kts | 124° |
| 2026-02-18 20:42 | 37.54935 | 129.06990 | 39238 ft | 525 kts | 124° |
| 2026-02-18 20:42 | 37.51131 | 129.14841 | 39240 ft | 525 kts | 123° |
| 2026-02-18 20:43 | 37.47353 | 129.22658 | 39229 ft | 526 kts | 123° |
| 2026-02-18 20:43 | 37.43545 | 129.30526 | 39231 ft | 526 kts | 123° |
| 2026-02-18 20:44 | 37.39735 | 129.38384 | 39228 ft | 526 kts | 124° |
| 2026-02-18 20:44 | 37.35911 | 129.46245 | 39233 ft | 527 kts | 124° |
| 2026-02-18 20:45 | 37.30161 | 129.58031 | 39224 ft | 527 kts | 124° |
| 2026-02-18 20:46 | 37.26346 | 129.65829 | 39233 ft | 527 kts | 124° |
| 2026-02-18 20:46 | 37.22502 | 129.73669 | 39230 ft | 527 kts | 124° |
| 2026-02-18 20:47 | 37.18645 | 129.81515 | 39229 ft | 527 kts | 124° |
| 2026-02-18 20:47 | 37.14790 | 129.89353 | 39237 ft | 528 kts | 124° |
| 2026-02-18 20:48 | 37.10920 | 129.97186 | 39236 ft | 529 kts | 124° |
| 2026-02-18 20:48 | 37.07041 | 130.05013 | 39239 ft | 529 kts | 124° |
| 2026-02-18 20:49 | 37.01209 | 130.16751 | 39236 ft | 529 kts | 125° |
| 2026-02-18 20:49 | 36.97337 | 130.24523 | 39244 ft | 530 kts | 125° |
| 2026-02-18 20:50 | 36.93436 | 130.32343 | 39249 ft | 530 kts | 125° |
| 2026-02-18 20:50 | 36.89519 | 130.40174 | 39250 ft | 532 kts | 125° |
| 2026-02-18 20:51 | 36.85572 | 130.48043 | 39253 ft | 536 kts | 125° |
| 2026-02-18 20:51 | 36.81607 | 130.55932 | 39254 ft | 536 kts | 125° |
| 2026-02-18 20:52 | 36.77636 | 130.63816 | 39260 ft | 536 kts | 125° |
| 2026-02-18 20:52 | 36.73663 | 130.71697 | 39262 ft | 536 kts | 125° |
| 2026-02-18 20:53 | 36.67710 | 130.83449 | 39262 ft | 536 kts | 126° |
| 2026-02-18 20:54 | 36.63719 | 130.91302 | 39264 ft | 536 kts | 126° |
| 2026-02-18 20:54 | 36.59720 | 130.99155 | 39265 ft | 536 kts | 126° |
| 2026-02-18 20:55 | 36.55776 | 131.06886 | 39271 ft | 536 kts | 126° |
| 2026-02-18 20:55 | 36.51775 | 131.14712 | 39267 ft | 536 kts | 126° |
| 2026-02-18 20:56 | 36.47758 | 131.22550 | 39275 ft | 537 kts | 126° |
| 2026-02-18 20:56 | 36.43733 | 131.30383 | 39277 ft | 538 kts | 126° |
| 2026-02-18 20:57 | 36.38358 | 131.42614 | 39275 ft | 543 kts | 109° |
| 2026-02-18 20:57 | 36.37025 | 131.51771 | 39276 ft | 544 kts | 93° |
| 2026-02-18 20:58 | 36.36657 | 131.61168 | 39278 ft | 545 kts | 91° |
| 2026-02-18 20:58 | 36.36427 | 131.70591 | 39279 ft | 546 kts | 91° |
| 2026-02-18 20:59 | 36.36167 | 131.80000 | 39275 ft | 545 kts | 91° |
| 2026-02-18 20:59 | 36.35868 | 131.89395 | 39278 ft | 545 kts | 91° |
| 2026-02-18 21:00 | 36.35551 | 131.98724 | 39274 ft | 545 kts | 91° |
| 2026-02-18 21:00 | 36.35224 | 132.08139 | 39282 ft | 546 kts | 91° |
| 2026-02-18 21:01 | 36.34721 | 132.22262 | 39294 ft | 546 kts | 91° |
| 2026-02-18 21:02 | 36.34377 | 132.31661 | 39278 ft | 545 kts | 92° |
| 2026-02-18 21:02 | 36.34027 | 132.41045 | 39273 ft | 544 kts | 92° |
| 2026-02-18 21:03 | 36.33672 | 132.50368 | 39283 ft | 545 kts | 92° |
| 2026-02-18 21:03 | 36.33306 | 132.59768 | 39282 ft | 545 kts | 92° |
| 2026-02-18 21:04 | 36.32933 | 132.69176 | 39286 ft | 546 kts | 92° |
| 2026-02-18 21:04 | 36.32552 | 132.78587 | 39279 ft | 546 kts | 92° |
| 2026-02-18 21:05 | 36.31967 | 132.92711 | 39282 ft | 546 kts | 92° |
| 2026-02-18 21:05 | 36.31570 | 133.02067 | 39284 ft | 547 kts | 92° |
| 2026-02-18 21:06 | 36.31163 | 133.11483 | 39287 ft | 547 kts | 92° |
| 2026-02-18 21:06 | 36.30749 | 133.20893 | 39287 ft | 547 kts | 92° |
| 2026-02-18 21:07 | 36.30326 | 133.30320 | 39282 ft | 547 kts | 92° |
| 2026-02-18 21:07 | 36.29897 | 133.39738 | 39287 ft | 548 kts | 92° |
| 2026-02-18 21:08 | 36.29460 | 133.49166 | 39287 ft | 548 kts | 92° |
| 2026-02-18 21:08 | 36.29015 | 133.58599 | 39301 ft | 548 kts | 92° |
| 2026-02-18 21:09 | 36.28338 | 133.72672 | 39287 ft | 548 kts | 93° |
| 2026-02-18 21:10 | 36.27878 | 133.82117 | 39287 ft | 549 kts | 93° |
| 2026-02-18 21:10 | 36.27405 | 133.91572 | 39287 ft | 549 kts | 93° |
| 2026-02-18 21:11 | 36.26921 | 134.01036 | 39279 ft | 549 kts | 93° |
| 2026-02-18 21:11 | 36.26434 | 134.10488 | 39290 ft | 550 kts | 93° |
| 2026-02-18 21:12 | 36.25943 | 134.19942 | 39290 ft | 550 kts | 93° |
| 2026-02-18 21:12 | 36.25440 | 134.29333 | 39287 ft | 550 kts | 93° |
| 2026-02-18 21:13 | 36.24669 | 134.43507 | 39284 ft | 550 kts | 93° |
| 2026-02-18 21:14 | 36.25278 | 134.56082 | 39285 ft | 546 kts | 77° |
| 2026-02-18 21:14 | 36.26748 | 134.65309 | 39284 ft | 545 kts | 75° |
| 2026-02-18 21:15 | 36.28328 | 134.74496 | 39285 ft | 545 kts | 75° |
| 2026-02-18 21:15 | 36.29884 | 134.83631 | 39289 ft | 545 kts | 75° |
| 2026-02-18 21:16 | 36.31423 | 134.92844 | 39282 ft | 546 kts | 75° |
| 2026-02-18 21:16 | 36.32949 | 135.02085 | 39285 ft | 547 kts | 76° |
| 2026-02-18 21:17 | 36.35226 | 135.15971 | 39282 ft | 547 kts | 76° |
| 2026-02-18 21:17 | 36.36727 | 135.25172 | 39285 ft | 547 kts | 76° |
| 2026-02-18 21:18 | 36.38230 | 135.34436 | 39278 ft | 547 kts | 76° |
| 2026-02-18 21:18 | 36.39724 | 135.43688 | 39282 ft | 546 kts | 76° |
| 2026-02-18 21:19 | 36.41208 | 135.52927 | 39271 ft | 547 kts | 76° |
| 2026-02-18 21:19 | 36.42680 | 135.62138 | 39269 ft | 547 kts | 76° |
| 2026-02-18 21:20 | 36.44154 | 135.71414 | 39279 ft | 547 kts | 76° |
| 2026-02-18 21:20 | 36.45604 | 135.80585 | 39267 ft | 547 kts | 76° |
| 2026-02-18 21:21 | 36.47792 | 135.94513 | 39253 ft | 547 kts | 76° |
| 2026-02-18 21:22 | 36.49240 | 136.03790 | 39260 ft | 547 kts | 77° |
| 2026-02-18 21:22 | 36.50672 | 136.13014 | 39260 ft | 547 kts | 77° |
| 2026-02-18 21:23 | 36.52107 | 136.22311 | 39261 ft | 547 kts | 77° |
| 2026-02-18 21:23 | 36.53534 | 136.31605 | 39266 ft | 547 kts | 77° |
| 2026-02-18 21:24 | 36.54957 | 136.40922 | 39265 ft | 547 kts | 77° |
| 2026-02-18 21:24 | 36.56370 | 136.50225 | 39260 ft | 547 kts | 77° |
| 2026-02-18 21:25 | 36.58468 | 136.64132 | 39262 ft | 547 kts | 77° |
| 2026-02-18 21:25 | 36.59865 | 136.73455 | 39260 ft | 548 kts | 77° |
| 2026-02-18 21:26 | 36.61256 | 136.82795 | 39264 ft | 548 kts | 77° |
| 2026-02-18 21:26 | 36.62640 | 136.92136 | 39265 ft | 549 kts | 77° |
| 2026-02-18 21:27 | 36.64014 | 137.01486 | 39267 ft | 549 kts | 78° |
| 2026-02-18 21:27 | 36.65348 | 137.10797 | 39263 ft | 549 kts | 78° |
| 2026-02-18 21:28 | 36.66682 | 137.20180 | 39276 ft | 549 kts | 78° |
| 2026-02-18 21:28 | 36.68012 | 137.29561 | 39265 ft | 549 kts | 78° |
| 2026-02-18 21:29 | 36.69988 | 137.43573 | 39265 ft | 550 kts | 78° |
| 2026-02-18 21:30 | 36.71304 | 137.52972 | 39259 ft | 550 kts | 78° |
| 2026-02-18 21:30 | 36.72615 | 137.62382 | 39241 ft | 550 kts | 78° |
| 2026-02-18 21:31 | 36.73914 | 137.71779 | 39238 ft | 549 kts | 78° |
| 2026-02-18 21:31 | 36.75198 | 137.81105 | 39228 ft | 549 kts | 78° |
| 2026-02-18 21:32 | 36.76482 | 137.90494 | 39216 ft | 548 kts | 79° |
| 2026-02-18 21:32 | 36.77754 | 137.99882 | 39206 ft | 548 kts | 79° |
| 2026-02-18 21:33 | 36.79663 | 138.13967 | 39216 ft | 549 kts | 78° |
| 2026-02-18 21:33 | 36.80958 | 138.23362 | 39207 ft | 550 kts | 78° |
| 2026-02-18 21:34 | 36.82250 | 138.32775 | 39210 ft | 550 kts | 78° |
| 2026-02-18 21:34 | 36.83532 | 138.42184 | 39208 ft | 550 kts | 79° |
| 2026-02-18 21:35 | 36.84799 | 138.51551 | 39200 ft | 550 kts | 79° |
| 2026-02-18 21:35 | 36.86048 | 138.60995 | 39193 ft | 551 kts | 79° |
| 2026-02-18 21:36 | 36.87282 | 138.70442 | 39194 ft | 550 kts | 79° |
| 2026-02-18 21:36 | 36.88512 | 138.79881 | 39190 ft | 550 kts | 79° |
| 2026-02-18 21:37 | 36.90342 | 138.94024 | 39175 ft | 549 kts | 79° |
| 2026-02-18 21:38 | 36.91543 | 139.03373 | 39166 ft | 548 kts | 79° |
| 2026-02-18 21:38 | 36.92748 | 139.12787 | 39162 ft | 549 kts | 79° |
| 2026-02-18 21:39 | 36.93967 | 139.22146 | 39149 ft | 549 kts | 79° |
| 2026-02-18 21:39 | 36.95189 | 139.31533 | 39135 ft | 550 kts | 79° |
| 2026-02-18 21:40 | 36.96408 | 139.40995 | 39125 ft | 551 kts | 79° |
| 2026-02-18 21:40 | 36.97614 | 139.50452 | 39121 ft | 551 kts | 79° |
| 2026-02-18 21:41 | 36.99408 | 139.64686 | 39096 ft | 554 kts | 79° |
| 2026-02-18 21:41 | 37.00605 | 139.74231 | 39088 ft | 554 kts | 79° |
| 2026-02-18 21:42 | 37.01790 | 139.83701 | 39078 ft | 554 kts | 79° |
| 2026-02-18 21:42 | 37.02977 | 139.93249 | 39064 ft | 556 kts | 79° |
| 2026-02-18 21:43 | 37.04156 | 140.02833 | 39066 ft | 558 kts | 79° |
| 2026-02-18 21:43 | 37.05328 | 140.12445 | 39033 ft | 558 kts | 79° |
| 2026-02-18 21:44 | 37.06495 | 140.22061 | 39027 ft | 559 kts | 79° |
| 2026-02-18 21:44 | 37.07657 | 140.31698 | 39002 ft | 559 kts | 79° |
| 2026-02-18 21:45 | 37.09375 | 140.46088 | 38988 ft | 559 kts | 79° |
| 2026-02-18 21:46 | 37.09844 | 140.55787 | 38993 ft | 560 kts | 97° |
| 2026-02-18 21:46 | 37.09110 | 140.60536 | 38972 ft | 550 kts | 110° |
| 2026-02-18 21:46 | 37.07701 | 140.64952 | 38490 ft | 543 kts | 123° |
| 2026-02-18 21:46 | 37.05660 | 140.68898 | 37676 ft | 536 kts | 136° |
| 2026-02-18 21:47 | 37.03069 | 140.72152 | 37084 ft | 521 kts | 150° |
| 2026-02-18 21:47 | 37.00076 | 140.74582 | 36482 ft | 504 kts | 163° |
| 2026-02-18 21:47 | 36.96874 | 140.76121 | 35940 ft | 485 kts | 176° |
| 2026-02-18 21:47 | 36.93600 | 140.76803 | 35302 ft | 469 kts | 188° |
| 2026-02-18 21:48 | 36.90399 | 140.76662 | 34676 ft | 452 kts | 199° |
| 2026-02-18 21:48 | 36.87421 | 140.75805 | 34069 ft | 438 kts | 209° |
| 2026-02-18 21:48 | 36.84647 | 140.74362 | 33390 ft | 430 kts | 213° |
| 2026-02-18 21:48 | 36.81830 | 140.73029 | 32759 ft | 435 kts | 210° |
| 2026-02-18 21:49 | 36.76090 | 140.70614 | 31445 ft | 435 kts | 209° |
| 2026-02-18 21:49 | 36.73204 | 140.69459 | 30770 ft | 436 kts | 208° |
| 2026-02-18 21:49 | 36.70295 | 140.68325 | 30053 ft | 438 kts | 208° |
| 2026-02-18 21:50 | 36.67395 | 140.67215 | 29487 ft | 434 kts | 208° |
| 2026-02-18 21:50 | 36.64529 | 140.66134 | 29009 ft | 427 kts | 208° |
| 2026-02-18 21:50 | 36.61693 | 140.65063 | 28531 ft | 424 kts | 208° |
| 2026-02-18 21:50 | 36.58873 | 140.63997 | 28048 ft | 422 kts | 207° |
| 2026-02-18 21:51 | 36.56107 | 140.62950 | 27507 ft | 420 kts | 207° |
| 2026-02-18 21:51 | 36.53320 | 140.61894 | 26944 ft | 417 kts | 207° |
| 2026-02-18 21:51 | 36.50559 | 140.60840 | 26363 ft | 414 kts | 207° |
| 2026-02-18 21:51 | 36.47819 | 140.59794 | 25793 ft | 411 kts | 207° |
| 2026-02-18 21:52 | 36.45083 | 140.58752 | 25234 ft | 409 kts | 207° |
| 2026-02-18 21:52 | 36.42358 | 140.57715 | 24666 ft | 408 kts | 207° |
| 2026-02-18 21:52 | 36.39651 | 140.56687 | 24104 ft | 406 kts | 207° |
| 2026-02-18 21:52 | 36.36907 | 140.55764 | 23518 ft | 413 kts | 201° |
| 2026-02-18 21:53 | 36.31016 | 140.56382 | 22228 ft | 449 kts | 166° |
| 2026-02-18 21:53 | 36.28281 | 140.58358 | 21579 ft | 464 kts | 146° |
| 2026-02-18 21:53 | 36.26048 | 140.61220 | 20918 ft | 471 kts | 134° |
| 2026-02-18 21:54 | 36.23914 | 140.64304 | 20289 ft | 470 kts | 135° |
| 2026-02-18 21:54 | 36.21740 | 140.67344 | 19689 ft | 469 kts | 136° |
| 2026-02-18 21:54 | 36.19558 | 140.70326 | 19126 ft | 465 kts | 136° |
| 2026-02-18 21:54 | 36.17377 | 140.73262 | 18589 ft | 461 kts | 136° |
| 2026-02-18 21:55 | 36.15202 | 140.76166 | 17995 ft | 458 kts | 136° |
| 2026-02-18 21:55 | 36.12924 | 140.78859 | 17438 ft | 448 kts | 148° |
| 2026-02-18 21:55 | 36.10254 | 140.80675 | 16925 ft | 432 kts | 163° |
| 2026-02-18 21:55 | 36.07468 | 140.81968 | 16418 ft | 424 kts | 167° |
| 2026-02-18 21:56 | 36.04701 | 140.83169 | 15912 ft | 419 kts | 167° |
| 2026-02-18 21:56 | 36.01958 | 140.84361 | 15376 ft | 416 kts | 166° |
| 2026-02-18 21:56 | 35.99234 | 140.85548 | 14846 ft | 413 kts | 166° |
| 2026-02-18 21:56 | 35.96538 | 140.86728 | 14331 ft | 410 kts | 166° |
| 2026-02-18 21:57 | 35.91226 | 140.89062 | 13209 ft | 405 kts | 165° |
| 2026-02-18 21:57 | 35.88590 | 140.90222 | 12695 ft | 400 kts | 165° |
| 2026-02-18 21:57 | 35.85972 | 140.91375 | 12232 ft | 395 kts | 165° |
| 2026-02-18 21:58 | 35.83392 | 140.92513 | 11748 ft | 392 kts | 164° |
| 2026-02-18 21:58 | 35.80831 | 140.93640 | 11188 ft | 390 kts | 164° |
| 2026-02-18 21:58 | 35.78284 | 140.94702 | 10833 ft | 379 kts | 169° |
| 2026-02-18 21:58 | 35.75755 | 140.95016 | 10699 ft | 355 kts | 191° |
| 2026-02-18 21:59 | 35.73478 | 140.94213 | 10574 ft | 329 kts | 213° |
| 2026-02-18 21:59 | 35.71591 | 140.92754 | 10436 ft | 312 kts | 221° |
| 2026-02-18 21:59 | 35.69862 | 140.91219 | 10322 ft | 301 kts | 222° |
| 2026-02-18 21:59 | 35.68216 | 140.89737 | 10174 ft | 292 kts | 222° |
| 2026-02-18 22:00 | 35.66600 | 140.88288 | 10052 ft | 283 kts | 222° |
| 2026-02-18 22:00 | 35.65020 | 140.86885 | 9814 ft | 278 kts | 224° |
| 2026-02-18 22:00 | 35.63458 | 140.85498 | 9507 ft | 275 kts | 224° |
| 2026-02-18 22:00 | 35.61913 | 140.84121 | 9201 ft | 273 kts | 223° |
| 2026-02-18 22:01 | 35.59372 | 140.81862 | 8710 ft | 269 kts | 223° |
| 2026-02-18 22:01 | 35.57858 | 140.80522 | 8411 ft | 267 kts | 222° |
| 2026-02-18 22:01 | 35.56356 | 140.79194 | 8117 ft | 265 kts | 222° |
| 2026-02-18 22:02 | 35.54866 | 140.77877 | 7789 ft | 263 kts | 222° |
| 2026-02-18 22:02 | 35.53389 | 140.76571 | 7494 ft | 260 kts | 222° |
| 2026-02-18 22:02 | 35.52056 | 140.75111 | 7202 ft | 253 kts | 232° |
| 2026-02-18 22:02 | 35.50907 | 140.73487 | 6906 ft | 250 kts | 234° |
| 2026-02-18 22:03 | 35.49803 | 140.71851 | 6616 ft | 248 kts | 234° |
| 2026-02-18 22:03 | 35.48714 | 140.70226 | 6322 ft | 245 kts | 235° |
| 2026-02-18 22:03 | 35.47807 | 140.68479 | 5952 ft | 241 kts | 250° |
| 2026-02-18 22:03 | 35.47467 | 140.66519 | 5581 ft | 238 kts | 271° |
| 2026-02-18 22:04 | 35.47806 | 140.64549 | 5256 ft | 236 kts | 292° |
| 2026-02-18 22:04 | 35.48558 | 140.62780 | 5091 ft | 230 kts | 297° |
| 2026-02-18 22:04 | 35.49350 | 140.61110 | 4934 ft | 223 kts | 298° |
| 2026-02-18 22:04 | 35.50118 | 140.59499 | 4814 ft | 215 kts | 298° |
| 2026-02-18 22:05 | 35.51595 | 140.56403 | 4454 ft | 206 kts | 303° |
| 2026-02-18 22:05 | 35.52538 | 140.55102 | 4277 ft | 203 kts | 315° |
| 2026-02-18 22:05 | 35.53655 | 140.54059 | 4067 ft | 201 kts | 323° |
| 2026-02-18 22:06 | 35.54838 | 140.53158 | 4003 ft | 200 kts | 325° |
| 2026-02-18 22:06 | 35.56041 | 140.52289 | 3998 ft | 201 kts | 326° |
| 2026-02-18 22:06 | 35.57236 | 140.51433 | 4009 ft | 200 kts | 326° |
| 2026-02-18 22:06 | 35.58407 | 140.50588 | 3923 ft | 191 kts | 325° |
| 2026-02-18 22:07 | 35.59543 | 140.49754 | 3709 ft | 188 kts | 326° |
| 2026-02-18 22:07 | 35.60652 | 140.48953 | 3465 ft | 182 kts | 327° |
| 2026-02-18 22:07 | 35.61729 | 140.48178 | 3171 ft | 176 kts | 327° |
| 2026-02-18 22:07 | 35.62768 | 140.47428 | 2890 ft | 170 kts | 328° |
| 2026-02-18 22:08 | 35.63769 | 140.46699 | 2639 ft | 164 kts | 328° |
| 2026-02-18 22:08 | 35.64728 | 140.45999 | 2443 ft | 158 kts | 329° |
| 2026-02-18 22:08 | 35.65659 | 140.45306 | 2207 ft | 153 kts | 329° |
| 2026-02-18 22:08 | 35.66552 | 140.44661 | 1972 ft | 142 kts | 331° |
| 2026-02-18 22:09 | 35.68205 | 140.43487 | 1576 ft | 139 kts | 332° |
| 2026-02-18 22:09 | 35.69038 | 140.42895 | 1409 ft | 135 kts | 332° |
| 2026-02-18 22:09 | 35.69809 | 140.42328 | 1222 ft | 124 kts | 332° |
| 2026-02-18 22:10 | 35.70556 | 140.41789 | 1026 ft | 125 kts | 332° |
| 2026-02-18 22:10 | 35.71286 | 140.41265 | 881 ft | 119 kts | 331° |
| 2026-02-18 22:10 | 35.72004 | 140.40746 | 705 ft | 121 kts | 330° |
| 2026-02-18 22:10 | 35.72727 | 140.40229 | 548 ft | 120 kts | 329° |
| 2026-02-18 22:11 | 35.73449 | 140.39705 | 392 ft | 120 kts | 329° |
| 2026-02-18 22:11 | 35.74164 | 140.39193 | 232 ft | 118 kts | 330° |
| 2026-02-18 22:11 | 35.74850 | 140.38697 | 152 ft | 103 kts | 330° |
| 2026-02-18 22:11 | 35.75323 | 140.38357 | 147 ft | 63 kts | 329° |
| 2026-02-18 22:12 | 35.75625 | 140.38138 | 153 ft | 36 kts | 329° |
| 2026-02-18 22:12 | 35.75829 | 140.38011 | 150 ft | 30 kts | 341° |
| 2026-02-18 22:12 | 35.76014 | 140.37978 | 148 ft | 22 kts | 359° |
| 2026-02-18 22:12 | 35.76109 | 140.37977 | 147 ft | 12 kts | 1° |
| 2026-02-18 22:13 | 35.76231 | 140.38088 | 147 ft | 12 kts | 59° |
| 2026-02-18 22:13 | 35.76238 | 140.38187 | 147 ft | 12 kts | 121° |
| 2026-02-18 22:13 | 35.76169 | 140.38247 | 147 ft | 10 kts | 149° |
| 2026-02-18 22:14 | 35.76154 | 140.38272 | 147 ft | 1 kts | 106° |
| 2026-02-18 22:14 | 35.76163 | 140.38313 | 147 ft | 9 kts | 65° |
| 2026-02-18 22:14 | 35.76188 | 140.38368 | 147 ft | 3 kts | 60° |